<?xml version='1.0' encoding='UTF-8'?><gpx version="1.1" creator="JPX - https://github.com/jenetics/jpx" xmlns="http://www.topografix.com/GPX/1/1"><trk><trkseg><trkpt lat="43.33440104566706" lon="11.103442841762256"><ele>209.0</ele><time>2026-04-11T06:45:00.999Z</time></trkpt><trkpt lat="43.33442485931765" lon="11.103361751726261"><ele>209.0</ele><time>2026-04-11T06:48:43Z</time></trkpt><trkpt lat="43.33448375589079" lon="11.103298195610508"><ele>209.0</ele><time>2026-04-11T06:48:50Z</time></trkpt><trkpt lat="43.33442111166612" lon="11.103321069620593"><ele>209.0</ele><time>2026-04-11T06:49:23.001Z</time></trkpt><trkpt lat="43.3344168894967" lon="11.10340744093397"><ele>209.0</ele><time>2026-04-11T06:49:37.001Z</time></trkpt><trkpt lat="43.334372729355145" lon="11.103335642228249"><ele>209.0</ele><time>2026-04-11T06:50:03Z</time></trkpt><trkpt lat="43.33442562069704" lon="11.103264215996665"><ele>209.0</ele><time>2026-04-11T06:50:20Z</time></trkpt><trkpt lat="43.33449939247909" lon="11.103241634900542"><ele>209.00000000000003</ele><time>2026-04-11T06:50:42Z</time></trkpt><trkpt lat="43.334571463321744" lon="11.103314904494207"><ele>209.0</ele><time>2026-04-11T06:50:43Z</time></trkpt><trkpt lat="43.33463554428733" lon="11.103391514643906"><ele>209.0</ele><time>2026-04-11T06:50:44Z</time></trkpt><trkpt lat="43.33470280889147" lon="11.10343202429397"><ele>209.0</ele><time>2026-04-11T06:50:45Z</time></trkpt><trkpt lat="43.334770361214595" lon="11.103429537758517"><ele>209.00000000000003</ele><time>2026-04-11T06:50:46Z</time></trkpt><trkpt lat="43.33486173500454" lon="11.103381654949857"><ele>209.0</ele><time>2026-04-11T06:50:48Z</time></trkpt><trkpt lat="43.33493210847759" lon="11.103330499952039"><ele>208.66666666666669</ele><time>2026-04-11T06:50:50Z</time></trkpt><trkpt lat="43.3350002284404" lon="11.103297098043749"><ele>208.33333333333334</ele><time>2026-04-11T06:50:51Z</time></trkpt><trkpt lat="43.33507784039659" lon="11.103229532741343"><ele>208.0</ele><time>2026-04-11T06:50:52Z</time></trkpt><trkpt lat="43.33515532355979" lon="11.103173880702316"><ele>207.66666666666669</ele><time>2026-04-11T06:50:53Z</time></trkpt><trkpt lat="43.33523848994013" lon="11.10311434776085"><ele>207.33333333333334</ele><time>2026-04-11T06:50:54Z</time></trkpt><trkpt lat="43.3353149306899" lon="11.103051342953854"><ele>207.0</ele><time>2026-04-11T06:50:55Z</time></trkpt><trkpt lat="43.335390975210665" lon="11.102985245748147"><ele>206.39999999999998</ele><time>2026-04-11T06:50:56Z</time></trkpt><trkpt lat="43.33547535856412" lon="11.102920037715537"><ele>205.79999999999998</ele><time>2026-04-11T06:50:57Z</time></trkpt><trkpt lat="43.33556587083418" lon="11.10286301750719"><ele>205.2</ele><time>2026-04-11T06:50:58Z</time></trkpt><trkpt lat="43.3356643176324" lon="11.102804780169704"><ele>204.6</ele><time>2026-04-11T06:50:59Z</time></trkpt><trkpt lat="43.33575233124687" lon="11.10275207015227"><ele>204.0</ele><time>2026-04-11T06:51:00Z</time></trkpt><trkpt lat="43.33583228742049" lon="11.102706675428179"><ele>204.0</ele><time>2026-04-11T06:51:01Z</time></trkpt><trkpt lat="43.33591229949473" lon="11.102662433198079"><ele>204.0</ele><time>2026-04-11T06:51:02Z</time></trkpt><trkpt lat="43.335997587438975" lon="11.102631003766167"><ele>204.0</ele><time>2026-04-11T06:51:03Z</time></trkpt><trkpt lat="43.33608272944638" lon="11.102611305212088"><ele>204.0</ele><time>2026-04-11T06:51:04Z</time></trkpt><trkpt lat="43.33616636629515" lon="11.102583551509678"><ele>204.0</ele><time>2026-04-11T06:51:05Z</time></trkpt><trkpt lat="43.33623755775553" lon="11.102542277009803"><ele>204.0</ele><time>2026-04-11T06:51:06Z</time></trkpt><trkpt lat="43.336304936551954" lon="11.102495352557217"><ele>204.0</ele><time>2026-04-11T06:51:07Z</time></trkpt><trkpt lat="43.33637862290938" lon="11.102461524490561"><ele>204.0</ele><time>2026-04-11T06:51:08Z</time></trkpt><trkpt lat="43.33646290881348" lon="11.102463351986355"><ele>204.0</ele><time>2026-04-11T06:51:09Z</time></trkpt><trkpt lat="43.33655942937808" lon="11.102486958203905"><ele>204.0</ele><time>2026-04-11T06:51:10Z</time></trkpt><trkpt lat="43.336645919445154" lon="11.102483446993254"><ele>204.0</ele><time>2026-04-11T06:51:11Z</time></trkpt><trkpt lat="43.336719709000356" lon="11.102472825292141"><ele>204.0</ele><time>2026-04-11T06:51:12.001Z</time></trkpt><trkpt lat="43.336784009062185" lon="11.10245455400768"><ele>204.16666666666666</ele><time>2026-04-11T06:51:13.001Z</time></trkpt><trkpt lat="43.33689186343872" lon="11.102405522360966"><ele>204.33333333333331</ele><time>2026-04-11T06:51:15.001Z</time></trkpt><trkpt lat="43.33696943137962" lon="11.102392439670693"><ele>204.5</ele><time>2026-04-11T06:51:17.001Z</time></trkpt><trkpt lat="43.33702561599652" lon="11.102445750200426"><ele>204.66666666666666</ele><time>2026-04-11T06:51:20.001Z</time></trkpt><trkpt lat="43.33712639775236" lon="11.102450909170528"><ele>204.83333333333331</ele><time>2026-04-11T06:51:24.001Z</time></trkpt><trkpt lat="43.33718379925105" lon="11.102517426420567"><ele>205.0</ele><time>2026-04-11T06:51:26.001Z</time></trkpt><trkpt lat="43.33724125712908" lon="11.102577034078472"><ele>204.49999999999997</ele><time>2026-04-11T06:51:28.001Z</time></trkpt><trkpt lat="43.33727303554747" lon="11.102663147130091"><ele>204.0</ele><time>2026-04-11T06:51:30.001Z</time></trkpt><trkpt lat="43.33730170406399" lon="11.102773747877325"><ele>203.5</ele><time>2026-04-11T06:51:33.001Z</time></trkpt><trkpt lat="43.337329816258496" lon="11.102905423896715"><ele>203.0</ele><time>2026-04-11T06:51:35.001Z</time></trkpt><trkpt lat="43.337318710446816" lon="11.102995444215352"><ele>202.49999999999997</ele><time>2026-04-11T06:51:37Z</time></trkpt><trkpt lat="43.33730091837526" lon="11.10311204660541"><ele>202.0</ele><time>2026-04-11T06:51:40Z</time></trkpt><trkpt lat="43.33736219638034" lon="11.103091580192569"><ele>202.0</ele><time>2026-04-11T06:51:42Z</time></trkpt><trkpt lat="43.3373371873771" lon="11.10288859932972"><ele>202.0</ele><time>2026-04-11T06:51:44Z</time></trkpt><trkpt lat="43.33729698080308" lon="11.102717437395624"><ele>202.0</ele><time>2026-04-11T06:51:45Z</time></trkpt><trkpt lat="43.33726151862912" lon="11.102598079558259"><ele>202.0</ele><time>2026-04-11T06:51:46Z</time></trkpt><trkpt lat="43.337177318183734" lon="11.102481313889122"><ele>201.99999999999997</ele><time>2026-04-11T06:51:48Z</time></trkpt><trkpt lat="43.337119454173944" lon="11.102445138874547"><ele>202.0</ele><time>2026-04-11T06:51:49Z</time></trkpt><trkpt lat="43.33703888532828" lon="11.102387141675067"><ele>202.0</ele><time>2026-04-11T06:51:51Z</time></trkpt><trkpt lat="43.33698924055501" lon="11.102444332606757"><ele>202.0</ele><time>2026-04-11T06:51:54Z</time></trkpt><trkpt lat="43.337052651756935" lon="11.102490311704768"><ele>201.99999999999997</ele><time>2026-04-11T06:51:56Z</time></trkpt><trkpt lat="43.33712315887661" lon="11.102511638366469"><ele>202.0</ele><time>2026-04-11T06:51:57Z</time></trkpt><trkpt lat="43.33717537705419" lon="11.102618518116463"><ele>201.99999999999997</ele><time>2026-04-11T06:51:59Z</time></trkpt><trkpt lat="43.33718710003854" lon="11.102713114723999"><ele>202.0</ele><time>2026-04-11T06:52:21Z</time></trkpt><trkpt lat="43.33724141671801" lon="11.102792977050672"><ele>202.0</ele><time>2026-04-11T06:52:22Z</time></trkpt><trkpt lat="43.3372790361499" lon="11.10287339405867"><ele>202.0</ele><time>2026-04-11T06:52:23Z</time></trkpt><trkpt lat="43.337269175957324" lon="11.102767039328045"><ele>201.99999999999997</ele><time>2026-04-11T06:52:28Z</time></trkpt><trkpt lat="43.33720280029096" lon="11.102713252551283"><ele>202.0</ele><time>2026-04-11T06:52:29Z</time></trkpt><trkpt lat="43.337134897819574" lon="11.102582847656873"><ele>201.99999999999997</ele><time>2026-04-11T06:52:31Z</time></trkpt><trkpt lat="43.33710243508436" lon="11.102508344793337"><ele>202.0</ele><time>2026-04-11T06:52:32Z</time></trkpt><trkpt lat="43.33702774346629" lon="11.102442787953684"><ele>202.0</ele><time>2026-04-11T06:52:34Z</time></trkpt><trkpt lat="43.3370676705757" lon="11.102365413617528"><ele>202.0</ele><time>2026-04-11T06:52:37Z</time></trkpt><trkpt lat="43.33715078754685" lon="11.102430787631727"><ele>201.99999999999997</ele><time>2026-04-11T06:52:39Z</time></trkpt><trkpt lat="43.33720709163169" lon="11.102510356869152"><ele>202.0</ele><time>2026-04-11T06:52:40Z</time></trkpt><trkpt lat="43.33725675312905" lon="11.102607170294927"><ele>201.99999999999997</ele><time>2026-04-11T06:52:41Z</time></trkpt><trkpt lat="43.337289663599535" lon="11.10270634977668"><ele>202.0</ele><time>2026-04-11T06:52:42Z</time></trkpt><trkpt lat="43.337319958642084" lon="11.102821581848648"><ele>202.0</ele><time>2026-04-11T06:52:43Z</time></trkpt><trkpt lat="43.33733582802897" lon="11.10292675102941"><ele>202.0</ele><time>2026-04-11T06:52:44Z</time></trkpt><trkpt lat="43.337336910332" lon="11.103014179848591"><ele>201.99999999999997</ele><time>2026-04-11T06:52:45Z</time></trkpt><trkpt lat="43.33730030435573" lon="11.103140581883041"><ele>202.0</ele><time>2026-04-11T06:52:47Z</time></trkpt><trkpt lat="43.337385184253144" lon="11.10320174133344"><ele>202.0</ele><time>2026-04-11T06:52:51Z</time></trkpt><trkpt lat="43.33752008286858" lon="11.103176234252663"><ele>202.0</ele><time>2026-04-11T06:52:53Z</time></trkpt><trkpt lat="43.33761893240906" lon="11.103186653261002"><ele>202.0</ele><time>2026-04-11T06:52:54Z</time></trkpt><trkpt lat="43.33773773700474" lon="11.103222352051525"><ele>202.0</ele><time>2026-04-11T06:52:55Z</time></trkpt><trkpt lat="43.33787190519419" lon="11.103259539091672"><ele>202.2</ele><time>2026-04-11T06:52:56Z</time></trkpt><trkpt lat="43.33800188489396" lon="11.103289259578466"><ele>202.39999999999998</ele><time>2026-04-11T06:52:57Z</time></trkpt><trkpt lat="43.338108658016644" lon="11.103309807241223"><ele>202.60000000000002</ele><time>2026-04-11T06:52:58Z</time></trkpt><trkpt lat="43.33820087589968" lon="11.103314086858424"><ele>202.8</ele><time>2026-04-11T06:52:59Z</time></trkpt><trkpt lat="43.338286076158134" lon="11.103298566409592"><ele>203.0</ele><time>2026-04-11T06:53:00Z</time></trkpt><trkpt lat="43.33835794917425" lon="11.103264503338004"><ele>203.0</ele><time>2026-04-11T06:53:01Z</time></trkpt><trkpt lat="43.33841746025121" lon="11.103218075282724"><ele>203.0</ele><time>2026-04-11T06:53:02Z</time></trkpt><trkpt lat="43.338476168404526" lon="11.103165586656472"><ele>203.0</ele><time>2026-04-11T06:53:03Z</time></trkpt><trkpt lat="43.338535066856274" lon="11.103131126418718"><ele>203.0</ele><time>2026-04-11T06:53:04Z</time></trkpt><trkpt lat="43.33862051904454" lon="11.103083696459366"><ele>203.0</ele><time>2026-04-11T06:53:06Z</time></trkpt><trkpt lat="43.338665287791336" lon="11.103009151936975"><ele>203.0</ele><time>2026-04-11T06:53:11Z</time></trkpt><trkpt lat="43.33858679142447" lon="11.103010653241716"><ele>203.0</ele><time>2026-04-11T06:53:14Z</time></trkpt><trkpt lat="43.33853906392963" lon="11.10309671348431"><ele>203.00000000000003</ele><time>2026-04-11T06:53:15Z</time></trkpt><trkpt lat="43.33848729770132" lon="11.103177174639502"><ele>203.0</ele><time>2026-04-11T06:53:16Z</time></trkpt><trkpt lat="43.33841645328064" lon="11.10322072038646"><ele>203.0</ele><time>2026-04-11T06:53:17Z</time></trkpt><trkpt lat="43.33834200149063" lon="11.103262025372798"><ele>203.0</ele><time>2026-04-11T06:53:18.001Z</time></trkpt><trkpt lat="43.33827075982365" lon="11.103303204232418"><ele>203.00000000000003</ele><time>2026-04-11T06:53:19.001Z</time></trkpt><trkpt lat="43.338205478525516" lon="11.103336753124818"><ele>203.0</ele><time>2026-04-11T06:53:20.001Z</time></trkpt><trkpt lat="43.338104282782304" lon="11.10333981703907"><ele>203.0</ele><time>2026-04-11T06:53:22.001Z</time></trkpt><trkpt lat="43.3380240971564" lon="11.103318909437323"><ele>203.0</ele><time>2026-04-11T06:53:23.001Z</time></trkpt><trkpt lat="43.33791323493093" lon="11.10328585736701"><ele>203.0</ele><time>2026-04-11T06:53:24.001Z</time></trkpt><trkpt lat="43.33780907987871" lon="11.103256477678586"><ele>203.0</ele><time>2026-04-11T06:53:25.001Z</time></trkpt><trkpt lat="43.33770994628224" lon="11.103228424634906"><ele>203.0</ele><time>2026-04-11T06:53:26Z</time></trkpt><trkpt lat="43.33762423861535" lon="11.10321223004325"><ele>202.83333333333334</ele><time>2026-04-11T06:53:27Z</time></trkpt><trkpt lat="43.33754957638889" lon="11.103192843541066"><ele>202.66666666666669</ele><time>2026-04-11T06:53:28Z</time></trkpt><trkpt lat="43.33748658895395" lon="11.103173201678862"><ele>202.5</ele><time>2026-04-11T06:53:29Z</time></trkpt><trkpt lat="43.33738498372313" lon="11.103110276407014"><ele>202.33333333333331</ele><time>2026-04-11T06:53:31Z</time></trkpt><trkpt lat="43.3373150375635" lon="11.103017303898218"><ele>202.16666666666666</ele><time>2026-04-11T06:53:33Z</time></trkpt><trkpt lat="43.33731888288821" lon="11.1028797818611"><ele>202.0</ele><time>2026-04-11T06:53:35Z</time></trkpt><trkpt lat="43.33730060066534" lon="11.102721124000734"><ele>202.0</ele><time>2026-04-11T06:53:37Z</time></trkpt><trkpt lat="43.3372534180854" lon="11.102571758624421"><ele>202.0</ele><time>2026-04-11T06:53:39Z</time></trkpt><trkpt lat="43.337168564631774" lon="11.10247469764645"><ele>202.0</ele><time>2026-04-11T06:53:41Z</time></trkpt><trkpt lat="43.337072447743864" lon="11.102408021986669"><ele>202.0</ele><time>2026-04-11T06:53:43Z</time></trkpt><trkpt lat="43.33698992062015" lon="11.102402427053153"><ele>202.0</ele><time>2026-04-11T06:53:46Z</time></trkpt><trkpt lat="43.33689943851286" lon="11.102400995911552"><ele>202.75</ele><time>2026-04-11T06:54:12Z</time></trkpt><trkpt lat="43.336819287944905" lon="11.102429608294148"><ele>203.5</ele><time>2026-04-11T06:54:13Z</time></trkpt><trkpt lat="43.33668855318887" lon="11.10247266718099"><ele>204.25</ele><time>2026-04-11T06:54:14Z</time></trkpt><trkpt lat="43.336545335852186" lon="11.102490119246127"><ele>205.0</ele><time>2026-04-11T06:54:15Z</time></trkpt><trkpt lat="43.33642864936958" lon="11.102484766344984"><ele>204.75</ele><time>2026-04-11T06:54:16Z</time></trkpt><trkpt lat="43.33633092530876" lon="11.102479840878475"><ele>204.5</ele><time>2026-04-11T06:54:17Z</time></trkpt><trkpt lat="43.33624371573466" lon="11.102500536060509"><ele>204.25</ele><time>2026-04-11T06:54:18Z</time></trkpt><trkpt lat="43.33613515198968" lon="11.102575359412391"><ele>204.0</ele><time>2026-04-11T06:54:19Z</time></trkpt><trkpt lat="43.33600055486802" lon="11.102645782035621"><ele>204.0</ele><time>2026-04-11T06:54:20Z</time></trkpt><trkpt lat="43.33583629946232" lon="11.102699661378608"><ele>204.0</ele><time>2026-04-11T06:54:21Z</time></trkpt><trkpt lat="43.33566767923923" lon="11.102781226652658"><ele>204.0</ele><time>2026-04-11T06:54:22Z</time></trkpt><trkpt lat="43.33550078949035" lon="11.1028962056742"><ele>203.66666666666669</ele><time>2026-04-11T06:54:23Z</time></trkpt><trkpt lat="43.33534263171467" lon="11.103022244946096"><ele>203.33333333333334</ele><time>2026-04-11T06:54:24Z</time></trkpt><trkpt lat="43.33521009096971" lon="11.10312905828641"><ele>203.0</ele><time>2026-04-11T06:54:25Z</time></trkpt><trkpt lat="43.33510299342146" lon="11.103217874566852"><ele>203.00000000000003</ele><time>2026-04-11T06:54:26Z</time></trkpt><trkpt lat="43.335019388402955" lon="11.103275805602086"><ele>203.0</ele><time>2026-04-11T06:54:27Z</time></trkpt><trkpt lat="43.334956622728285" lon="11.103315753738636"><ele>203.0</ele><time>2026-04-11T06:54:28Z</time></trkpt><trkpt lat="43.334882549366846" lon="11.10336225388881"><ele>203.0</ele><time>2026-04-11T06:54:31Z</time></trkpt><trkpt lat="43.33487799162027" lon="11.103265965292076"><ele>203.00000000000003</ele><time>2026-04-11T06:54:54Z</time></trkpt><trkpt lat="43.33490821880318" lon="11.103140542388548"><ele>203.0</ele><time>2026-04-11T06:54:55Z</time></trkpt><trkpt lat="43.33494831707553" lon="11.102985540633064"><ele>203.00000000000003</ele><time>2026-04-11T06:54:56Z</time></trkpt><trkpt lat="43.334986244682575" lon="11.102852018896764"><ele>203.0</ele><time>2026-04-11T06:54:57Z</time></trkpt><trkpt lat="43.33502750284812" lon="11.102743313659134"><ele>203.0</ele><time>2026-04-11T06:54:58Z</time></trkpt><trkpt lat="43.33507846564873" lon="11.10265753310932"><ele>203.0</ele><time>2026-04-11T06:54:59Z</time></trkpt><trkpt lat="43.33515207582716" lon="11.102613864314094"><ele>203.00000000000003</ele><time>2026-04-11T06:55:00Z</time></trkpt><trkpt lat="43.33523268687447" lon="11.102599552905904"><ele>203.0</ele><time>2026-04-11T06:55:01Z</time></trkpt><trkpt lat="43.335334742860155" lon="11.102567344102043"><ele>203.0</ele><time>2026-04-11T06:55:02Z</time></trkpt><trkpt lat="43.335458581044605" lon="11.102501775029285"><ele>203.0</ele><time>2026-04-11T06:55:03Z</time></trkpt><trkpt lat="43.33560147823005" lon="11.102452955140464"><ele>203.0</ele><time>2026-04-11T06:55:04Z</time></trkpt><trkpt lat="43.335741502552615" lon="11.102403769434284"><ele>203.0</ele><time>2026-04-11T06:55:05Z</time></trkpt><trkpt lat="43.33588750924016" lon="11.102356917983387"><ele>202.75</ele><time>2026-04-11T06:55:06Z</time></trkpt><trkpt lat="43.336040787700405" lon="11.10229802710921"><ele>202.5</ele><time>2026-04-11T06:55:07Z</time></trkpt><trkpt lat="43.336183108139146" lon="11.102263508758924"><ele>202.25</ele><time>2026-04-11T06:55:08Z</time></trkpt><trkpt lat="43.33631089832091" lon="11.102231057719296"><ele>202.0</ele><time>2026-04-11T06:55:09Z</time></trkpt><trkpt lat="43.3364334412464" lon="11.102192051685247"><ele>202.0</ele><time>2026-04-11T06:55:10Z</time></trkpt><trkpt lat="43.33654556793358" lon="11.10215968092927"><ele>202.0</ele><time>2026-04-11T06:55:11Z</time></trkpt><trkpt lat="43.33664542417888" lon="11.102137672196115"><ele>202.0</ele><time>2026-04-11T06:55:12Z</time></trkpt><trkpt lat="43.33674073806496" lon="11.102130910324973"><ele>202.0</ele><time>2026-04-11T06:55:13Z</time></trkpt><trkpt lat="43.33683960785237" lon="11.102146877098178"><ele>202.0</ele><time>2026-04-11T06:55:14Z</time></trkpt><trkpt lat="43.33695241174969" lon="11.102171071332306"><ele>202.0</ele><time>2026-04-11T06:55:15Z</time></trkpt><trkpt lat="43.337074812865126" lon="11.102202529008034"><ele>202.0</ele><time>2026-04-11T06:55:16Z</time></trkpt><trkpt lat="43.33718607492566" lon="11.102221634437711"><ele>202.0</ele><time>2026-04-11T06:55:17Z</time></trkpt><trkpt lat="43.337291113640184" lon="11.102247275967741"><ele>202.0</ele><time>2026-04-11T06:55:18Z</time></trkpt><trkpt lat="43.33740463064677" lon="11.102301684096291"><ele>202.0</ele><time>2026-04-11T06:55:19Z</time></trkpt><trkpt lat="43.337502701495694" lon="11.102358727887525"><ele>202.0</ele><time>2026-04-11T06:55:19.999Z</time></trkpt><trkpt lat="43.337577339473214" lon="11.10239988579217"><ele>202.0</ele><time>2026-04-11T06:55:20.999Z</time></trkpt><trkpt lat="43.3376583077187" lon="11.102511829535752"><ele>202.0</ele><time>2026-04-11T06:55:22.999Z</time></trkpt><trkpt lat="43.337699550561226" lon="11.1026232835954"><ele>202.0</ele><time>2026-04-11T06:55:24Z</time></trkpt><trkpt lat="43.337770553689545" lon="11.102770877357665"><ele>202.0</ele><time>2026-04-11T06:55:25Z</time></trkpt><trkpt lat="43.337841956721604" lon="11.102941495495017"><ele>202.0</ele><time>2026-04-11T06:55:26Z</time></trkpt><trkpt lat="43.33788741009021" lon="11.103093281980879"><ele>202.0</ele><time>2026-04-11T06:55:27Z</time></trkpt><trkpt lat="43.33791560326581" lon="11.103217712702143"><ele>202.0</ele><time>2026-04-11T06:55:28Z</time></trkpt><trkpt lat="43.337955898219" lon="11.103321729745856"><ele>202.0</ele><time>2026-04-11T06:55:30Z</time></trkpt><trkpt lat="43.3380797371159" lon="11.103314850910841"><ele>202.2</ele><time>2026-04-11T06:55:32Z</time></trkpt><trkpt lat="43.33820435806261" lon="11.103312272713632"><ele>202.39999999999998</ele><time>2026-04-11T06:55:33Z</time></trkpt><trkpt lat="43.33832074521982" lon="11.103283589563826"><ele>202.60000000000002</ele><time>2026-04-11T06:55:34Z</time></trkpt><trkpt lat="43.33841415602222" lon="11.103228476720261"><ele>202.8</ele><time>2026-04-11T06:55:35Z</time></trkpt><trkpt lat="43.338499066958505" lon="11.10315495945666"><ele>203.0</ele><time>2026-04-11T06:55:36Z</time></trkpt><trkpt lat="43.33858276430813" lon="11.103101006230292"><ele>203.0</ele><time>2026-04-11T06:55:37Z</time></trkpt><trkpt lat="43.3386596011061" lon="11.1030637705515"><ele>203.0</ele><time>2026-04-11T06:55:38Z</time></trkpt><trkpt lat="43.33872295159064" lon="11.103049362179652"><ele>203.0</ele><time>2026-04-11T06:55:39Z</time></trkpt><trkpt lat="43.33881468878631" lon="11.103028645490914"><ele>203.0</ele><time>2026-04-11T06:55:42Z</time></trkpt><trkpt lat="43.338913956900136" lon="11.102968460169773"><ele>203.0</ele><time>2026-04-11T06:55:44Z</time></trkpt><trkpt lat="43.33901300902538" lon="11.102862323770566"><ele>202.4</ele><time>2026-04-11T06:55:46Z</time></trkpt><trkpt lat="43.339133486783275" lon="11.102815039216475"><ele>201.8</ele><time>2026-04-11T06:55:47Z</time></trkpt><trkpt lat="43.339220041312146" lon="11.102804356176474"><ele>201.2</ele><time>2026-04-11T06:55:48Z</time></trkpt><trkpt lat="43.33929231755398" lon="11.102795030910476"><ele>200.6</ele><time>2026-04-11T06:55:49Z</time></trkpt><trkpt lat="43.339364016480594" lon="11.102811758610882"><ele>200.0</ele><time>2026-04-11T06:55:51Z</time></trkpt><trkpt lat="43.33933316443621" lon="11.102985797550957"><ele>200.0</ele><time>2026-04-11T06:55:54Z</time></trkpt><trkpt lat="43.33921704633717" lon="11.103021039781398"><ele>200.0</ele><time>2026-04-11T06:55:56Z</time></trkpt><trkpt lat="43.33911890332674" lon="11.103036992008368"><ele>200.0</ele><time>2026-04-11T06:55:57Z</time></trkpt><trkpt lat="43.339020070983466" lon="11.103124714940487"><ele>200.0</ele><time>2026-04-11T06:55:58Z</time></trkpt><trkpt lat="43.338917531881336" lon="11.103215039668195"><ele>200.6</ele><time>2026-04-11T06:55:59Z</time></trkpt><trkpt lat="43.33883174307842" lon="11.103285531391814"><ele>201.2</ele><time>2026-04-11T06:56:00Z</time></trkpt><trkpt lat="43.338764073861405" lon="11.103452271802349"><ele>201.8</ele><time>2026-04-11T06:56:01Z</time></trkpt><trkpt lat="43.3387055781201" lon="11.103568308115545"><ele>202.4</ele><time>2026-04-11T06:56:02Z</time></trkpt><trkpt lat="43.338653975022034" lon="11.103663257790432"><ele>203.0</ele><time>2026-04-11T06:56:03Z</time></trkpt><trkpt lat="43.33857192637554" lon="11.103680741823696"><ele>203.00000000000003</ele><time>2026-04-11T06:56:04Z</time></trkpt><trkpt lat="43.338472706900134" lon="11.10370186871109"><ele>203.0</ele><time>2026-04-11T06:56:05Z</time></trkpt><trkpt lat="43.33839566365614" lon="11.103778458189366"><ele>203.0</ele><time>2026-04-11T06:56:06Z</time></trkpt><trkpt lat="43.338328653842474" lon="11.10385188573429"><ele>203.0</ele><time>2026-04-11T06:56:07Z</time></trkpt><trkpt lat="43.338281011744186" lon="11.103934143773724"><ele>203.00000000000003</ele><time>2026-04-11T06:56:08Z</time></trkpt><trkpt lat="43.33824733505799" lon="11.104013032882925"><ele>203.0</ele><time>2026-04-11T06:56:09Z</time></trkpt><trkpt lat="43.338277037461005" lon="11.104165830602943"><ele>203.2</ele><time>2026-04-11T06:56:11Z</time></trkpt><trkpt lat="43.338360181694156" lon="11.10424463619244"><ele>203.4</ele><time>2026-04-11T06:56:12Z</time></trkpt><trkpt lat="43.338459350070785" lon="11.104374444866565"><ele>203.6</ele><time>2026-04-11T06:56:13Z</time></trkpt><trkpt lat="43.3385382482946" lon="11.104485509428713"><ele>203.79999999999998</ele><time>2026-04-11T06:56:14Z</time></trkpt><trkpt lat="43.33858450958291" lon="11.10458161560744"><ele>204.0</ele><time>2026-04-11T06:56:16Z</time></trkpt><trkpt lat="43.33851544241339" lon="11.10467597602706"><ele>204.0</ele><time>2026-04-11T06:56:18Z</time></trkpt><trkpt lat="43.338447766261744" lon="11.104748969697887"><ele>204.0</ele><time>2026-04-11T06:56:19Z</time></trkpt><trkpt lat="43.338385086081" lon="11.10485855261458"><ele>204.0</ele><time>2026-04-11T06:56:20Z</time></trkpt><trkpt lat="43.33830258837776" lon="11.104973730007762"><ele>204.0</ele><time>2026-04-11T06:56:21Z</time></trkpt><trkpt lat="43.33822409074567" lon="11.10507110068074"><ele>204.0</ele><time>2026-04-11T06:56:22Z</time></trkpt><trkpt lat="43.33815883243262" lon="11.105149617791911"><ele>204.0</ele><time>2026-04-11T06:56:23Z</time></trkpt><trkpt lat="43.33810490037649" lon="11.105219242200686"><ele>204.0</ele><time>2026-04-11T06:56:24Z</time></trkpt><trkpt lat="43.33804097949578" lon="11.105299196581683"><ele>204.0</ele><time>2026-04-11T06:56:26Z</time></trkpt><trkpt lat="43.33811639006947" lon="11.10533036361233"><ele>204.0</ele><time>2026-04-11T06:56:29Z</time></trkpt><trkpt lat="43.33819640996908" lon="11.105343235889361"><ele>204.0</ele><time>2026-04-11T06:56:30Z</time></trkpt><trkpt lat="43.33829909463594" lon="11.105358531913788"><ele>204.0</ele><time>2026-04-11T06:56:31Z</time></trkpt><trkpt lat="43.33841653124346" lon="11.105394780482891"><ele>204.2</ele><time>2026-04-11T06:56:32Z</time></trkpt><trkpt lat="43.33853914081635" lon="11.105440247570751"><ele>204.39999999999998</ele><time>2026-04-11T06:56:33Z</time></trkpt><trkpt lat="43.33862667039766" lon="11.105483008097048"><ele>204.6</ele><time>2026-04-11T06:56:34Z</time></trkpt><trkpt lat="43.338688239659575" lon="11.105543317546296"><ele>204.8</ele><time>2026-04-11T06:56:35Z</time></trkpt><trkpt lat="43.33874552866774" lon="11.105632983704956"><ele>205.0</ele><time>2026-04-11T06:56:36Z</time></trkpt><trkpt lat="43.33882222433517" lon="11.105762328271858"><ele>206.25</ele><time>2026-04-11T06:56:37Z</time></trkpt><trkpt lat="43.33891346167597" lon="11.10593953290918"><ele>207.5</ele><time>2026-04-11T06:56:38Z</time></trkpt><trkpt lat="43.33897790536703" lon="11.106083195734278"><ele>208.75</ele><time>2026-04-11T06:56:39Z</time></trkpt><trkpt lat="43.33902471037587" lon="11.106171643345375"><ele>210.0</ele><time>2026-04-11T06:56:41Z</time></trkpt><trkpt lat="43.33911696647299" lon="11.106267250533985"><ele>210.0</ele><time>2026-04-11T06:56:44Z</time></trkpt><trkpt lat="43.33920208417034" lon="11.106343667803854"><ele>210.0</ele><time>2026-04-11T06:56:45Z</time></trkpt><trkpt lat="43.33929928284103" lon="11.106395999133866"><ele>210.0</ele><time>2026-04-11T06:56:46Z</time></trkpt><trkpt lat="43.33937636186992" lon="11.106451986446782"><ele>210.0</ele><time>2026-04-11T06:56:47Z</time></trkpt><trkpt lat="43.33944624451125" lon="11.106481458399818"><ele>210.0</ele><time>2026-04-11T06:56:48Z</time></trkpt><trkpt lat="43.3395273962835" lon="11.106462023100837"><ele>210.0</ele><time>2026-04-11T06:56:49Z</time></trkpt><trkpt lat="43.33959192241693" lon="11.10642078720352"><ele>210.0</ele><time>2026-04-11T06:56:50Z</time></trkpt><trkpt lat="43.33966992081574" lon="11.106407176263014"><ele>210.0</ele><time>2026-04-11T06:56:51Z</time></trkpt><trkpt lat="43.33974808614909" lon="11.10642873020084"><ele>210.0</ele><time>2026-04-11T06:56:52Z</time></trkpt><trkpt lat="43.33982498339742" lon="11.106441419664225"><ele>210.0</ele><time>2026-04-11T06:56:53Z</time></trkpt><trkpt lat="43.339902435607335" lon="11.10640227436651"><ele>210.0</ele><time>2026-04-11T06:56:54Z</time></trkpt><trkpt lat="43.33994416136948" lon="11.10624286894444"><ele>210.0</ele><time>2026-04-11T06:56:56Z</time></trkpt><trkpt lat="43.33994056011898" lon="11.10614091587761"><ele>210.0</ele><time>2026-04-11T06:56:57Z</time></trkpt><trkpt lat="43.33993325499497" lon="11.105978655641792"><ele>210.0</ele><time>2026-04-11T06:56:58Z</time></trkpt><trkpt lat="43.33990831229674" lon="11.105845437127781"><ele>210.0</ele><time>2026-04-11T06:56:59Z</time></trkpt><trkpt lat="43.339926533259785" lon="11.105723634459645"><ele>210.0</ele><time>2026-04-11T06:57:00Z</time></trkpt><trkpt lat="43.33994652916908" lon="11.105605077206924"><ele>210.0</ele><time>2026-04-11T06:57:01Z</time></trkpt><trkpt lat="43.33998702800642" lon="11.105505592596735"><ele>210.0</ele><time>2026-04-11T06:57:02Z</time></trkpt><trkpt lat="43.340024742980596" lon="11.105434284069224"><ele>210.0</ele><time>2026-04-11T06:57:03Z</time></trkpt><trkpt lat="43.340121113722944" lon="11.105394397304396"><ele>210.0</ele><time>2026-04-11T06:57:05Z</time></trkpt><trkpt lat="43.3401980580655" lon="11.105462099169875"><ele>210.0</ele><time>2026-04-11T06:57:06.999Z</time></trkpt><trkpt lat="43.340253919786434" lon="11.10554598802064"><ele>210.0</ele><time>2026-04-11T06:57:07.999Z</time></trkpt><trkpt lat="43.340336777455924" lon="11.105650915168718"><ele>211.0</ele><time>2026-04-11T06:57:08.999Z</time></trkpt><trkpt lat="43.340423576713604" lon="11.105779961783902"><ele>212.0</ele><time>2026-04-11T06:57:09.999Z</time></trkpt><trkpt lat="43.34052454008404" lon="11.105944057333279"><ele>213.0</ele><time>2026-04-11T06:57:10.999Z</time></trkpt><trkpt lat="43.340613814919365" lon="11.106110542297941"><ele>214.0</ele><time>2026-04-11T06:57:11.999Z</time></trkpt><trkpt lat="43.34066714066482" lon="11.106246851242487"><ele>216.16666666666666</ele><time>2026-04-11T06:57:12.999Z</time></trkpt><trkpt lat="43.340696406768814" lon="11.106342546573812"><ele>218.33333333333331</ele><time>2026-04-11T06:57:13.999Z</time></trkpt><trkpt lat="43.340763694800074" lon="11.106491054396514"><ele>220.5</ele><time>2026-04-11T06:57:15.999Z</time></trkpt><trkpt lat="43.34081583906025" lon="11.106580197108787"><ele>222.66666666666669</ele><time>2026-04-11T06:57:16.999Z</time></trkpt><trkpt lat="43.34086098819771" lon="11.106672323540023"><ele>224.83333333333334</ele><time>2026-04-11T06:57:17.999Z</time></trkpt><trkpt lat="43.3409060790923" lon="11.10676181956548"><ele>227.0</ele><time>2026-04-11T06:57:18.999Z</time></trkpt><trkpt lat="43.340964918796466" lon="11.106872927375047"><ele>228.6</ele><time>2026-04-11T06:57:19.999Z</time></trkpt><trkpt lat="43.34102418967692" lon="11.106970997005549"><ele>230.2</ele><time>2026-04-11T06:57:20.999Z</time></trkpt><trkpt lat="43.34109710109615" lon="11.107081298956986"><ele>231.8</ele><time>2026-04-11T06:57:21.999Z</time></trkpt><trkpt lat="43.34117524675255" lon="11.107187879394724"><ele>233.4</ele><time>2026-04-11T06:57:22.999Z</time></trkpt><trkpt lat="43.34123901315508" lon="11.10730161332893"><ele>235.0</ele><time>2026-04-11T06:57:23.999Z</time></trkpt><trkpt lat="43.341300352228764" lon="11.10740637971309"><ele>235.49999999999997</ele><time>2026-04-11T06:57:24.999Z</time></trkpt><trkpt lat="43.34135068277555" lon="11.107477112124315"><ele>236.0</ele><time>2026-04-11T06:57:25.999Z</time></trkpt><trkpt lat="43.34139426036235" lon="11.10755020189252"><ele>236.5</ele><time>2026-04-11T06:57:26.999Z</time></trkpt><trkpt lat="43.341464611775955" lon="11.107597401198664"><ele>237.0</ele><time>2026-04-11T06:57:27.999Z</time></trkpt><trkpt lat="43.34153463963139" lon="11.10766783655325"><ele>237.49999999999997</ele><time>2026-04-11T06:57:28.999Z</time></trkpt><trkpt lat="43.34158286384073" lon="11.10773410898139"><ele>238.0</ele><time>2026-04-11T06:57:30Z</time></trkpt><trkpt lat="43.34165009176943" lon="11.107827720900046"><ele>240.5</ele><time>2026-04-11T06:57:31Z</time></trkpt><trkpt lat="43.34173983275182" lon="11.107946373290558"><ele>243.0</ele><time>2026-04-11T06:57:32Z</time></trkpt><trkpt lat="43.34183337759182" lon="11.108071296245015"><ele>245.5</ele><time>2026-04-11T06:57:33Z</time></trkpt><trkpt lat="43.34191928954033" lon="11.10817171577368"><ele>248.0</ele><time>2026-04-11T06:57:34Z</time></trkpt><trkpt lat="43.341999288220094" lon="11.10826876150824"><ele>248.60000000000002</ele><time>2026-04-11T06:57:35Z</time></trkpt><trkpt lat="43.342075512503925" lon="11.108354019094"><ele>249.20000000000002</ele><time>2026-04-11T06:57:36Z</time></trkpt><trkpt lat="43.34214421911065" lon="11.108411847179433"><ele>249.8</ele><time>2026-04-11T06:57:37Z</time></trkpt><trkpt lat="43.342198662879525" lon="11.108486042898402"><ele>250.4</ele><time>2026-04-11T06:57:38Z</time></trkpt><trkpt lat="43.34225600012312" lon="11.108584618153667"><ele>251.0</ele><time>2026-04-11T06:57:39Z</time></trkpt><trkpt lat="43.342319622402016" lon="11.108695084965346"><ele>251.4</ele><time>2026-04-11T06:57:40Z</time></trkpt><trkpt lat="43.342382989542685" lon="11.1087708734988"><ele>251.8</ele><time>2026-04-11T06:57:41Z</time></trkpt><trkpt lat="43.34246341924794" lon="11.108818973300242"><ele>252.20000000000002</ele><time>2026-04-11T06:57:42Z</time></trkpt><trkpt lat="43.342558997250165" lon="11.108866101047857"><ele>252.60000000000002</ele><time>2026-04-11T06:57:43Z</time></trkpt><trkpt lat="43.34266753680954" lon="11.108923398035776"><ele>253.0</ele><time>2026-04-11T06:57:44Z</time></trkpt><trkpt lat="43.34275585949262" lon="11.109002943292444"><ele>253.0</ele><time>2026-04-11T06:57:45Z</time></trkpt><trkpt lat="43.34282819217723" lon="11.109064654325536"><ele>253.0</ele><time>2026-04-11T06:57:46Z</time></trkpt><trkpt lat="43.342917873002236" lon="11.10915278980892"><ele>253.0</ele><time>2026-04-11T06:57:48Z</time></trkpt><trkpt lat="43.342950833629324" lon="11.109312762085194"><ele>253.0</ele><time>2026-04-11T06:57:50Z</time></trkpt><trkpt lat="43.34299082081809" lon="11.109415063340876"><ele>253.0</ele><time>2026-04-11T06:57:51Z</time></trkpt><trkpt lat="43.34301545955229" lon="11.1095058743261"><ele>254.0</ele><time>2026-04-11T06:57:52Z</time></trkpt><trkpt lat="43.34303714573332" lon="11.109599770176816"><ele>255.0</ele><time>2026-04-11T06:57:53Z</time></trkpt><trkpt lat="43.34309102201257" lon="11.109697341406308"><ele>256.0</ele><time>2026-04-11T06:57:55Z</time></trkpt><trkpt lat="43.34305006345472" lon="11.109863222715122"><ele>257.0</ele><time>2026-04-11T06:57:58Z</time></trkpt><trkpt lat="43.343017229313126" lon="11.109994639203707"><ele>258.0</ele><time>2026-04-11T06:57:59Z</time></trkpt><trkpt lat="43.34300561336274" lon="11.110115053258962"><ele>258.0</ele><time>2026-04-11T06:58:00Z</time></trkpt><trkpt lat="43.342959810191" lon="11.11022532562497"><ele>258.0</ele><time>2026-04-11T06:58:01Z</time></trkpt><trkpt lat="43.342898628199464" lon="11.110317906863154"><ele>258.0</ele><time>2026-04-11T06:58:02Z</time></trkpt><trkpt lat="43.3428299052104" lon="11.110380973038453"><ele>258.0</ele><time>2026-04-11T06:58:03Z</time></trkpt><trkpt lat="43.34279358751446" lon="11.11049454838552"><ele>258.0</ele><time>2026-04-11T06:58:04Z</time></trkpt><trkpt lat="43.34278563274472" lon="11.110611224127789"><ele>258.0</ele><time>2026-04-11T06:58:05Z</time></trkpt><trkpt lat="43.34279785032072" lon="11.110715898661681"><ele>258.0</ele><time>2026-04-11T06:58:06Z</time></trkpt><trkpt lat="43.34280550276099" lon="11.110823277147711"><ele>258.0</ele><time>2026-04-11T06:58:07Z</time></trkpt><trkpt lat="43.342767829338726" lon="11.110934159502344"><ele>258.0</ele><time>2026-04-11T06:58:08Z</time></trkpt><trkpt lat="43.342710466134335" lon="11.111070643751557"><ele>258.0</ele><time>2026-04-11T06:58:09Z</time></trkpt><trkpt lat="43.3426782892287" lon="11.111195744088679"><ele>258.0</ele><time>2026-04-11T06:58:10Z</time></trkpt><trkpt lat="43.34263665786446" lon="11.111266814692044"><ele>258.0</ele><time>2026-04-11T06:58:11Z</time></trkpt><trkpt lat="43.34255326438233" lon="11.111294148602072"><ele>258.0</ele><time>2026-04-11T06:58:12Z</time></trkpt><trkpt lat="43.34247640761248" lon="11.1113250271575"><ele>258.0</ele><time>2026-04-11T06:58:13Z</time></trkpt><trkpt lat="43.34239808819649" lon="11.111329356515094"><ele>258.0</ele><time>2026-04-11T06:58:14Z</time></trkpt><trkpt lat="43.342284614647156" lon="11.111332737755985"><ele>258.0</ele><time>2026-04-11T06:58:16Z</time></trkpt><trkpt lat="43.34222504615007" lon="11.111303949219067"><ele>258.0</ele><time>2026-04-11T06:58:18Z</time></trkpt><trkpt lat="43.34214384012609" lon="11.111290955951622"><ele>258.0</ele><time>2026-04-11T06:58:22Z</time></trkpt><trkpt lat="43.342101316199475" lon="11.111216994224314"><ele>254.60000000000002</ele><time>2026-04-11T06:58:26Z</time></trkpt><trkpt lat="43.342005656069794" lon="11.111094721107"><ele>251.20000000000002</ele><time>2026-04-11T06:58:29Z</time></trkpt><trkpt lat="43.34193979368003" lon="11.1110146846486"><ele>247.8</ele><time>2026-04-11T06:58:30Z</time></trkpt><trkpt lat="43.341828140090215" lon="11.111026196207526"><ele>244.4</ele><time>2026-04-11T06:58:32Z</time></trkpt><trkpt lat="43.34174242728068" lon="11.110981659348058"><ele>241.0</ele><time>2026-04-11T06:58:34Z</time></trkpt><trkpt lat="43.34166680055495" lon="11.110974118835596"><ele>241.0</ele><time>2026-04-11T06:58:36Z</time></trkpt><trkpt lat="43.3415673558125" lon="11.11090296203265"><ele>241.00000000000003</ele><time>2026-04-11T06:58:38Z</time></trkpt><trkpt lat="43.34151493769985" lon="11.11083149352047"><ele>241.00000000000003</ele><time>2026-04-11T06:58:39Z</time></trkpt><trkpt lat="43.34147085671798" lon="11.110764176945938"><ele>241.0</ele><time>2026-04-11T06:58:40Z</time></trkpt><trkpt lat="43.341383253443404" lon="11.110666650078597"><ele>241.0</ele><time>2026-04-11T06:58:42Z</time></trkpt><trkpt lat="43.341330128294274" lon="11.110569377130904"><ele>239.33333333333331</ele><time>2026-04-11T06:58:44Z</time></trkpt><trkpt lat="43.34127366166708" lon="11.110485394304877"><ele>237.66666666666666</ele><time>2026-04-11T06:58:46Z</time></trkpt><trkpt lat="43.34118073412798" lon="11.11044198115934"><ele>236.0</ele><time>2026-04-11T06:58:48Z</time></trkpt><trkpt lat="43.34110581171108" lon="11.110383872916037"><ele>234.33333333333331</ele><time>2026-04-11T06:58:50Z</time></trkpt><trkpt lat="43.3410133366014" lon="11.11031615933951"><ele>232.66666666666666</ele><time>2026-04-11T06:58:53Z</time></trkpt><trkpt lat="43.3409453761883" lon="11.11033817192625"><ele>231.0</ele><time>2026-04-11T06:58:54Z</time></trkpt><trkpt lat="43.34088931172628" lon="11.110284604112314"><ele>231.0</ele><time>2026-04-11T06:58:55Z</time></trkpt><trkpt lat="43.34081656677273" lon="11.110406392986338"><ele>231.0</ele><time>2026-04-11T06:58:57Z</time></trkpt><trkpt lat="43.34077447165984" lon="11.11054531452255"><ele>231.0</ele><time>2026-04-11T06:58:59Z</time></trkpt><trkpt lat="43.3407684117846" lon="11.110634668421868"><ele>231.0</ele><time>2026-04-11T06:59:02Z</time></trkpt><trkpt lat="43.34070297723726" lon="11.110639218118733"><ele>231.0</ele><time>2026-04-11T06:59:03.999Z</time></trkpt><trkpt lat="43.34062308979808" lon="11.1105945509231"><ele>231.0</ele><time>2026-04-11T06:59:05Z</time></trkpt><trkpt lat="43.34051031988727" lon="11.110556235927637"><ele>230.33333333333334</ele><time>2026-04-11T06:59:06.999Z</time></trkpt><trkpt lat="43.340448913307874" lon="11.110585341354984"><ele>229.66666666666669</ele><time>2026-04-11T06:59:07.999Z</time></trkpt><trkpt lat="43.340384370352545" lon="11.110638088516382"><ele>229.0</ele><time>2026-04-11T06:59:08.999Z</time></trkpt><trkpt lat="43.34028145040452" lon="11.11071609995706"><ele>228.33333333333334</ele><time>2026-04-11T06:59:10.999Z</time></trkpt><trkpt lat="43.34020784106333" lon="11.110702324668978"><ele>227.66666666666669</ele><time>2026-04-11T06:59:12.999Z</time></trkpt><trkpt lat="43.34015293656735" lon="11.1106268298881"><ele>227.0</ele><time>2026-04-11T06:59:16.999Z</time></trkpt><trkpt lat="43.340076673564546" lon="11.110616536602768"><ele>227.0</ele><time>2026-04-11T06:59:22.999Z</time></trkpt><trkpt lat="43.3399828028077" lon="11.11060993701452"><ele>227.0</ele><time>2026-04-11T06:59:25.999Z</time></trkpt><trkpt lat="43.33990605939851" lon="11.110580825788723"><ele>227.0</ele><time>2026-04-11T07:00:55Z</time></trkpt><trkpt lat="43.339820165435185" lon="11.110582894994181"><ele>227.0</ele><time>2026-04-11T07:01:00Z</time></trkpt><trkpt lat="43.33975309658129" lon="11.11065937607264"><ele>227.0</ele><time>2026-04-11T07:01:01.999Z</time></trkpt><trkpt lat="43.33971670566997" lon="11.110794956058855"><ele>227.2</ele><time>2026-04-11T07:01:03.999Z</time></trkpt><trkpt lat="43.3397348603781" lon="11.110973681021981"><ele>227.39999999999998</ele><time>2026-04-11T07:01:05.999Z</time></trkpt><trkpt lat="43.33972962493343" lon="11.111106291641706"><ele>227.60000000000002</ele><time>2026-04-11T07:01:06.999Z</time></trkpt><trkpt lat="43.3397169792605" lon="11.111243094046586"><ele>227.8</ele><time>2026-04-11T07:01:07.999Z</time></trkpt><trkpt lat="43.33967717474924" lon="11.111354843903557"><ele>228.0</ele><time>2026-04-11T07:01:08.999Z</time></trkpt><trkpt lat="43.339617560155894" lon="11.111409866007108"><ele>226.4</ele><time>2026-04-11T07:01:09.999Z</time></trkpt><trkpt lat="43.33955064588087" lon="11.111408914877297"><ele>224.8</ele><time>2026-04-11T07:01:10.999Z</time></trkpt><trkpt lat="43.33945635593113" lon="11.111364761477427"><ele>223.2</ele><time>2026-04-11T07:01:11.999Z</time></trkpt><trkpt lat="43.33932905139125" lon="11.11128836286595"><ele>221.6</ele><time>2026-04-11T07:01:12.999Z</time></trkpt><trkpt lat="43.339215149198296" lon="11.111226523898091"><ele>220.0</ele><time>2026-04-11T07:01:13.999Z</time></trkpt><trkpt lat="43.339141572478226" lon="11.111190543534317"><ele>220.0</ele><time>2026-04-11T07:01:14.999Z</time></trkpt><trkpt lat="43.33907284409155" lon="11.111127497872115"><ele>220.0</ele><time>2026-04-11T07:01:16.999Z</time></trkpt><trkpt lat="43.33896924790063" lon="11.111204984883528"><ele>220.0</ele><time>2026-04-11T07:01:18.999Z</time></trkpt><trkpt lat="43.33885468790313" lon="11.11119751425265"><ele>220.0</ele><time>2026-04-11T07:01:19.999Z</time></trkpt><trkpt lat="43.338759480852275" lon="11.11119857545381"><ele>220.0</ele><time>2026-04-11T07:01:20.999Z</time></trkpt><trkpt lat="43.33868229214165" lon="11.111297510877945"><ele>219.83333333333331</ele><time>2026-04-11T07:01:22.999Z</time></trkpt><trkpt lat="43.33867496644027" lon="11.1114078710176"><ele>219.66666666666666</ele><time>2026-04-11T07:01:23.999Z</time></trkpt><trkpt lat="43.33868020429014" lon="11.111539987476391"><ele>219.5</ele><time>2026-04-11T07:01:24.999Z</time></trkpt><trkpt lat="43.33866845842739" lon="11.111627463064114"><ele>219.33333333333331</ele><time>2026-04-11T07:01:25.999Z</time></trkpt><trkpt lat="43.33855853865254" lon="11.111636449525545"><ele>219.16666666666666</ele><time>2026-04-11T07:01:27.999Z</time></trkpt><trkpt lat="43.33848291755813" lon="11.111577224663298"><ele>219.0</ele><time>2026-04-11T07:01:28.999Z</time></trkpt><trkpt lat="43.33842875390389" lon="11.111515889303217"><ele>218.39999999999998</ele><time>2026-04-11T07:01:29.999Z</time></trkpt><trkpt lat="43.33842387893367" lon="11.111355619151018"><ele>217.79999999999998</ele><time>2026-04-11T07:01:31.999Z</time></trkpt><trkpt lat="43.33846316287537" lon="11.111250033385872"><ele>217.20000000000002</ele><time>2026-04-11T07:01:32.999Z</time></trkpt><trkpt lat="43.33853579824296" lon="11.111134891304568"><ele>216.60000000000002</ele><time>2026-04-11T07:01:33.999Z</time></trkpt><trkpt lat="43.33862853080062" lon="11.111008156652053"><ele>216.0</ele><time>2026-04-11T07:01:34.999Z</time></trkpt><trkpt lat="43.33868986834294" lon="11.110923474595399"><ele>216.0</ele><time>2026-04-11T07:01:35.999Z</time></trkpt><trkpt lat="43.33873698972844" lon="11.110864169403161"><ele>216.00000000000003</ele><time>2026-04-11T07:01:36.999Z</time></trkpt><trkpt lat="43.33869767127265" lon="11.110730503926673"><ele>216.00000000000003</ele><time>2026-04-11T07:01:38.999Z</time></trkpt><trkpt lat="43.33862645367496" lon="11.11067890348645"><ele>216.0</ele><time>2026-04-11T07:01:39.999Z</time></trkpt><trkpt lat="43.338546002811235" lon="11.110691954869225"><ele>216.0</ele><time>2026-04-11T07:01:40.999Z</time></trkpt><trkpt lat="43.338425176742234" lon="11.110723168924553"><ele>215.83333333333334</ele><time>2026-04-11T07:01:42Z</time></trkpt><trkpt lat="43.338334853823966" lon="11.110721973026575"><ele>215.66666666666669</ele><time>2026-04-11T07:01:43Z</time></trkpt><trkpt lat="43.33827038223061" lon="11.110683378806879"><ele>215.5</ele><time>2026-04-11T07:01:44Z</time></trkpt><trkpt lat="43.338230813201115" lon="11.110614690990623"><ele>215.33333333333334</ele><time>2026-04-11T07:01:45Z</time></trkpt><trkpt lat="43.33821554984809" lon="11.110499469518727"><ele>215.16666666666669</ele><time>2026-04-11T07:01:46Z</time></trkpt><trkpt lat="43.338201937745275" lon="11.110355367766857"><ele>215.0</ele><time>2026-04-11T07:01:47Z</time></trkpt><trkpt lat="43.33818782838043" lon="11.110225393986044"><ele>215.00000000000003</ele><time>2026-04-11T07:01:48Z</time></trkpt><trkpt lat="43.338247754707155" lon="11.110124977441364"><ele>215.0</ele><time>2026-04-11T07:01:50Z</time></trkpt><trkpt lat="43.33832283938162" lon="11.110106102962927"><ele>215.0</ele><time>2026-04-11T07:01:51Z</time></trkpt><trkpt lat="43.33839836818352" lon="11.110134935607046"><ele>215.0</ele><time>2026-04-11T07:01:52Z</time></trkpt><trkpt lat="43.33846140117355" lon="11.11020868028111"><ele>215.00000000000003</ele><time>2026-04-11T07:01:53Z</time></trkpt><trkpt lat="43.338516873201314" lon="11.11032693371199"><ele>215.0</ele><time>2026-04-11T07:01:54Z</time></trkpt><trkpt lat="43.338572928146796" lon="11.11042553546626"><ele>215.0</ele><time>2026-04-11T07:01:55Z</time></trkpt><trkpt lat="43.33868449684272" lon="11.110450862930689"><ele>215.0</ele><time>2026-04-11T07:01:57Z</time></trkpt><trkpt lat="43.338763644934474" lon="11.11041612629236"><ele>215.0</ele><time>2026-04-11T07:01:58Z</time></trkpt><trkpt lat="43.33884869015692" lon="11.110364806200932"><ele>215.0</ele><time>2026-04-11T07:01:59Z</time></trkpt><trkpt lat="43.33891868657798" lon="11.11030409662445"><ele>215.0</ele><time>2026-04-11T07:02:00Z</time></trkpt><trkpt lat="43.33893916646228" lon="11.110177848658509"><ele>217.0</ele><time>2026-04-11T07:02:03Z</time></trkpt><trkpt lat="43.33907757601161" lon="11.11011616297842"><ele>219.0</ele><time>2026-04-11T07:02:05Z</time></trkpt><trkpt lat="43.33917067601068" lon="11.110008417513955"><ele>221.0</ele><time>2026-04-11T07:02:06Z</time></trkpt><trkpt lat="43.33925676694224" lon="11.109892518808794"><ele>223.0</ele><time>2026-04-11T07:02:07Z</time></trkpt><trkpt lat="43.3393065079923" lon="11.109809174842153"><ele>223.0</ele><time>2026-04-11T07:02:08Z</time></trkpt><trkpt lat="43.33922218189446" lon="11.109760161777698"><ele>223.0</ele><time>2026-04-11T07:02:11Z</time></trkpt><trkpt lat="43.33914578461469" lon="11.109824174977081"><ele>223.0</ele><time>2026-04-11T07:02:12Z</time></trkpt><trkpt lat="43.33906887582407" lon="11.10991160756525"><ele>223.0</ele><time>2026-04-11T07:02:13Z</time></trkpt><trkpt lat="43.338981319111504" lon="11.109996888243952"><ele>223.0</ele><time>2026-04-11T07:02:14Z</time></trkpt><trkpt lat="43.33889587975496" lon="11.110061318720218"><ele>221.4</ele><time>2026-04-11T07:02:15Z</time></trkpt><trkpt lat="43.338794378822925" lon="11.110122267905851"><ele>219.8</ele><time>2026-04-11T07:02:16Z</time></trkpt><trkpt lat="43.33868921432496" lon="11.110158799071002"><ele>218.2</ele><time>2026-04-11T07:02:17Z</time></trkpt><trkpt lat="43.33859395753626" lon="11.11016897981"><ele>216.6</ele><time>2026-04-11T07:02:18Z</time></trkpt><trkpt lat="43.33851776429756" lon="11.110161455626017"><ele>215.0</ele><time>2026-04-11T07:02:19Z</time></trkpt><trkpt lat="43.338462698387495" lon="11.110087468272564"><ele>215.0</ele><time>2026-04-11T07:02:21Z</time></trkpt><trkpt lat="43.33846691342787" lon="11.109923546095857"><ele>215.0</ele><time>2026-04-11T07:02:23Z</time></trkpt><trkpt lat="43.338483542176974" lon="11.109795023253655"><ele>215.0</ele><time>2026-04-11T07:02:24Z</time></trkpt><trkpt lat="43.33846786912707" lon="11.109699955126795"><ele>215.0</ele><time>2026-04-11T07:02:25Z</time></trkpt><trkpt lat="43.33837243090687" lon="11.109644692414461"><ele>215.0</ele><time>2026-04-11T07:02:27Z</time></trkpt><trkpt lat="43.33829856338693" lon="11.109665041081337"><ele>215.00000000000003</ele><time>2026-04-11T07:02:28Z</time></trkpt><trkpt lat="43.33821628777517" lon="11.10967843974746"><ele>215.0</ele><time>2026-04-11T07:02:29Z</time></trkpt><trkpt lat="43.33813974929717" lon="11.109591668988756"><ele>215.0</ele><time>2026-04-11T07:02:31Z</time></trkpt><trkpt lat="43.33807704097213" lon="11.109522307781205"><ele>215.0</ele><time>2026-04-11T07:02:33Z</time></trkpt><trkpt lat="43.338009622885885" lon="11.10950397701863"><ele>215.00000000000003</ele><time>2026-04-11T07:02:35Z</time></trkpt><trkpt lat="43.33796077136772" lon="11.10958939062117"><ele>215.0</ele><time>2026-04-11T07:02:37Z</time></trkpt><trkpt lat="43.33793799695403" lon="11.109681196339388"><ele>215.00000000000003</ele><time>2026-04-11T07:02:38Z</time></trkpt><trkpt lat="43.33788562680418" lon="11.109807837438263"><ele>215.0</ele><time>2026-04-11T07:02:39Z</time></trkpt><trkpt lat="43.337813646852844" lon="11.109923780563333"><ele>215.0</ele><time>2026-04-11T07:02:40Z</time></trkpt><trkpt lat="43.33777966026687" lon="11.110009546016185"><ele>215.0</ele><time>2026-04-11T07:02:41Z</time></trkpt><trkpt lat="43.33776775828013" lon="11.11010392137936"><ele>215.00000000000003</ele><time>2026-04-11T07:02:42Z</time></trkpt><trkpt lat="43.33769585275154" lon="11.110167339887774"><ele>215.0</ele><time>2026-04-11T07:02:44Z</time></trkpt><trkpt lat="43.33756493557934" lon="11.110125954635086"><ele>215.0</ele><time>2026-04-11T07:02:46Z</time></trkpt><trkpt lat="43.33750172787594" lon="11.110133919294244"><ele>215.0</ele><time>2026-04-11T07:02:48Z</time></trkpt><trkpt lat="43.33746924014107" lon="11.110248764688679"><ele>215.0</ele><time>2026-04-11T07:02:50Z</time></trkpt><trkpt lat="43.33741197768722" lon="11.110302012177225"><ele>215.0</ele><time>2026-04-11T07:02:51Z</time></trkpt><trkpt lat="43.33735062533055" lon="11.110351243833746"><ele>215.0</ele><time>2026-04-11T07:02:52Z</time></trkpt><trkpt lat="43.33730472397417" lon="11.110412127872063"><ele>215.0</ele><time>2026-04-11T07:02:53Z</time></trkpt><trkpt lat="43.337251917121996" lon="11.110498344147636"><ele>215.0</ele><time>2026-04-11T07:02:55Z</time></trkpt><trkpt lat="43.33720941616436" lon="11.110563365066497"><ele>214.83333333333334</ele><time>2026-04-11T07:02:57Z</time></trkpt><trkpt lat="43.33712320641293" lon="11.11053205712547"><ele>214.66666666666669</ele><time>2026-04-11T07:02:59Z</time></trkpt><trkpt lat="43.33704019607134" lon="11.11050064991126"><ele>214.5</ele><time>2026-04-11T07:03:01Z</time></trkpt><trkpt lat="43.33696572795415" lon="11.110576528709212"><ele>214.33333333333331</ele><time>2026-04-11T07:03:04Z</time></trkpt><trkpt lat="43.336886279827205" lon="11.110587412991153"><ele>214.16666666666666</ele><time>2026-04-11T07:03:07Z</time></trkpt><trkpt lat="43.33681649996525" lon="11.110550623595385"><ele>214.0</ele><time>2026-04-11T07:03:10Z</time></trkpt><trkpt lat="43.33674589077645" lon="11.110621709833065"><ele>214.0</ele><time>2026-04-11T07:03:12.999Z</time></trkpt><trkpt lat="43.33669689158601" lon="11.110706458836214"><ele>213.99999999999997</ele><time>2026-04-11T07:03:13.999Z</time></trkpt><trkpt lat="43.33661510331609" lon="11.110766904793394"><ele>213.99999999999997</ele><time>2026-04-11T07:03:14.999Z</time></trkpt><trkpt lat="43.33650626157536" lon="11.110825071098166"><ele>214.0</ele><time>2026-04-11T07:03:15.999Z</time></trkpt><trkpt lat="43.33645741533036" lon="11.110927703298705"><ele>214.0</ele><time>2026-04-11T07:03:17.999Z</time></trkpt><trkpt lat="43.33638004983923" lon="11.110948432679404"><ele>213.79999999999998</ele><time>2026-04-11T07:03:18.999Z</time></trkpt><trkpt lat="43.336272181426935" lon="11.111035897279818"><ele>213.59999999999997</ele><time>2026-04-11T07:03:20.999Z</time></trkpt><trkpt lat="43.336255888186976" lon="11.111190419073727"><ele>213.4</ele><time>2026-04-11T07:03:22.999Z</time></trkpt><trkpt lat="43.3363023435601" lon="11.111257654815327"><ele>213.2</ele><time>2026-04-11T07:03:23.999Z</time></trkpt><trkpt lat="43.33641082689022" lon="11.111336373420839"><ele>213.0</ele><time>2026-04-11T07:03:24.999Z</time></trkpt><trkpt lat="43.33645152218313" lon="11.111487710843628"><ele>213.16666666666666</ele><time>2026-04-11T07:03:25.999Z</time></trkpt><trkpt lat="43.33648002742554" lon="11.111598189356098"><ele>213.33333333333331</ele><time>2026-04-11T07:03:26.999Z</time></trkpt><trkpt lat="43.33645626978487" lon="11.111719135152315"><ele>213.5</ele><time>2026-04-11T07:03:27.999Z</time></trkpt><trkpt lat="43.33644968706185" lon="11.111807290562174"><ele>213.66666666666666</ele><time>2026-04-11T07:03:28.999Z</time></trkpt><trkpt lat="43.33638656878687" lon="11.111832396722255"><ele>213.83333333333331</ele><time>2026-04-11T07:03:30.999Z</time></trkpt><trkpt lat="43.33642359604788" lon="11.111953107534504"><ele>214.0</ele><time>2026-04-11T07:03:33.999Z</time></trkpt><trkpt lat="43.3364913891359" lon="11.111961062112265"><ele>214.0</ele><time>2026-04-11T07:03:34.999Z</time></trkpt><trkpt lat="43.33648909253502" lon="11.112077642957228"><ele>213.99999999999997</ele><time>2026-04-11T07:03:35.999Z</time></trkpt><trkpt lat="43.33646828892021" lon="11.112250467133613"><ele>213.99999999999997</ele><time>2026-04-11T07:03:36.999Z</time></trkpt><trkpt lat="43.33647016730433" lon="11.112407745966909"><ele>214.0</ele><time>2026-04-11T07:03:37.999Z</time></trkpt><trkpt lat="43.336472564948274" lon="11.112524437402719"><ele>214.0</ele><time>2026-04-11T07:03:38.999Z</time></trkpt><trkpt lat="43.33646685186914" lon="11.11261265014914"><ele>213.2</ele><time>2026-04-11T07:03:39.999Z</time></trkpt><trkpt lat="43.336385407820906" lon="11.112708093357536"><ele>212.39999999999998</ele><time>2026-04-11T07:03:41.999Z</time></trkpt><trkpt lat="43.336303495584765" lon="11.112707089464365"><ele>211.6</ele><time>2026-04-11T07:03:42.999Z</time></trkpt><trkpt lat="43.33619940143886" lon="11.112713734359424"><ele>210.8</ele><time>2026-04-11T07:03:43.999Z</time></trkpt><trkpt lat="43.33612337530032" lon="11.11270675066994"><ele>210.0</ele><time>2026-04-11T07:03:44.999Z</time></trkpt><trkpt lat="43.336042811860914" lon="11.112670503458778"><ele>210.0</ele><time>2026-04-11T07:03:45.999Z</time></trkpt><trkpt lat="43.33596904964361" lon="11.11261322941277"><ele>210.0</ele><time>2026-04-11T07:03:46.999Z</time></trkpt><trkpt lat="43.3358973329352" lon="11.112527789562467"><ele>210.0</ele><time>2026-04-11T07:03:48Z</time></trkpt><trkpt lat="43.33583722289849" lon="11.11243237500627"><ele>210.0</ele><time>2026-04-11T07:03:49Z</time></trkpt><trkpt lat="43.33578032842721" lon="11.112332993127943"><ele>210.0</ele><time>2026-04-11T07:03:50Z</time></trkpt><trkpt lat="43.33572410207272" lon="11.11225251921744"><ele>210.0</ele><time>2026-04-11T07:03:51Z</time></trkpt><trkpt lat="43.335650031599414" lon="11.112185489721906"><ele>210.0</ele><time>2026-04-11T07:03:52Z</time></trkpt><trkpt lat="43.335581416629395" lon="11.112135143900673"><ele>210.0</ele><time>2026-04-11T07:03:53Z</time></trkpt><trkpt lat="43.33551538090722" lon="11.11210941200467"><ele>210.0</ele><time>2026-04-11T07:03:54Z</time></trkpt><trkpt lat="43.335395373367945" lon="11.112134323293539"><ele>210.0</ele><time>2026-04-11T07:03:56Z</time></trkpt><trkpt lat="43.33533070757199" lon="11.112176318243948"><ele>210.0</ele><time>2026-04-11T07:03:57Z</time></trkpt><trkpt lat="43.33526576159908" lon="11.112189174721502"><ele>210.0</ele><time>2026-04-11T07:03:58Z</time></trkpt><trkpt lat="43.335177997249524" lon="11.11212708580436"><ele>210.0</ele><time>2026-04-11T07:04:00Z</time></trkpt><trkpt lat="43.335165535332074" lon="11.111957145860293"><ele>210.0</ele><time>2026-04-11T07:04:02Z</time></trkpt><trkpt lat="43.33520209983889" lon="11.111861468300216"><ele>210.0</ele><time>2026-04-11T07:04:03Z</time></trkpt><trkpt lat="43.33526496019038" lon="11.11175570447939"><ele>210.0</ele><time>2026-04-11T07:04:04Z</time></trkpt><trkpt lat="43.335334915857274" lon="11.111665819074313"><ele>210.0</ele><time>2026-04-11T07:04:05Z</time></trkpt><trkpt lat="43.33536532505192" lon="11.11154425561302"><ele>210.0</ele><time>2026-04-11T07:04:07Z</time></trkpt><trkpt lat="43.335316841627446" lon="11.111481005507057"><ele>210.0</ele><time>2026-04-11T07:04:08Z</time></trkpt><trkpt lat="43.335156782205424" lon="11.111505065212581"><ele>210.0</ele><time>2026-04-11T07:04:10Z</time></trkpt><trkpt lat="43.33508349080675" lon="11.111493491281092"><ele>210.0</ele><time>2026-04-11T07:04:11Z</time></trkpt><trkpt lat="43.33502264719967" lon="11.111321855045944"><ele>210.0</ele><time>2026-04-11T07:04:13Z</time></trkpt><trkpt lat="43.33501693465834" lon="11.111183340191632"><ele>210.0</ele><time>2026-04-11T07:04:14Z</time></trkpt><trkpt lat="43.33502574479582" lon="11.111039682951123"><ele>210.0</ele><time>2026-04-11T07:04:15Z</time></trkpt><trkpt lat="43.33504356029164" lon="11.110916119487095"><ele>210.0</ele><time>2026-04-11T07:04:16Z</time></trkpt><trkpt lat="43.3350812488568" lon="11.110801726896348"><ele>210.0</ele><time>2026-04-11T07:04:17Z</time></trkpt><trkpt lat="43.33512376202222" lon="11.110702308601653"><ele>210.0</ele><time>2026-04-11T07:04:18Z</time></trkpt><trkpt lat="43.33513882533148" lon="11.110558626366224"><ele>209.8</ele><time>2026-04-11T07:04:20Z</time></trkpt><trkpt lat="43.33503126251674" lon="11.110473293013175"><ele>209.6</ele><time>2026-04-11T07:04:22Z</time></trkpt><trkpt lat="43.334962984180514" lon="11.110406982207866"><ele>209.39999999999998</ele><time>2026-04-11T07:04:23Z</time></trkpt><trkpt lat="43.334886013590676" lon="11.11029180010788"><ele>209.2</ele><time>2026-04-11T07:04:25Z</time></trkpt><trkpt lat="43.33484204192616" lon="11.110129666582724"><ele>209.0</ele><time>2026-04-11T07:04:27Z</time></trkpt><trkpt lat="43.33477354811614" lon="11.110032514068324"><ele>209.39999999999998</ele><time>2026-04-11T07:04:29Z</time></trkpt><trkpt lat="43.334686718259434" lon="11.110101676430503"><ele>209.8</ele><time>2026-04-11T07:04:31Z</time></trkpt><trkpt lat="43.33468231759649" lon="11.110212398177898"><ele>210.2</ele><time>2026-04-11T07:04:32Z</time></trkpt><trkpt lat="43.33469331343553" lon="11.110349190192807"><ele>210.60000000000002</ele><time>2026-04-11T07:04:33Z</time></trkpt><trkpt lat="43.33467959472576" lon="11.11052448521933"><ele>211.0</ele><time>2026-04-11T07:04:34Z</time></trkpt><trkpt lat="43.334649573716504" lon="11.110704907825887"><ele>211.75</ele><time>2026-04-11T07:04:35Z</time></trkpt><trkpt lat="43.33461042065414" lon="11.110882259198808"><ele>212.5</ele><time>2026-04-11T07:04:36Z</time></trkpt><trkpt lat="43.33455590000094" lon="11.111053285115121"><ele>213.25</ele><time>2026-04-11T07:04:37Z</time></trkpt><trkpt lat="43.33449022749754" lon="11.111200029068177"><ele>214.0</ele><time>2026-04-11T07:04:38Z</time></trkpt><trkpt lat="43.33443574228582" lon="11.111329123079527"><ele>213.99999999999997</ele><time>2026-04-11T07:04:39Z</time></trkpt><trkpt lat="43.33439981987224" lon="11.111434692654734"><ele>214.0</ele><time>2026-04-11T07:04:40Z</time></trkpt><trkpt lat="43.334351635324914" lon="11.11152213452503"><ele>214.0</ele><time>2026-04-11T07:04:41Z</time></trkpt><trkpt lat="43.33428536250255" lon="11.11157695813805"><ele>214.0</ele><time>2026-04-11T07:04:42Z</time></trkpt><trkpt lat="43.33421343976648" lon="11.111611055000255"><ele>213.99999999999997</ele><time>2026-04-11T07:04:43Z</time></trkpt><trkpt lat="43.33414480536207" lon="11.111623943119083"><ele>214.0</ele><time>2026-04-11T07:04:44Z</time></trkpt><trkpt lat="43.33405434891896" lon="11.111767101720549"><ele>213.99999999999997</ele><time>2026-04-11T07:04:46Z</time></trkpt><trkpt lat="43.33401710577238" lon="11.11185485152111"><ele>214.0</ele><time>2026-04-11T07:04:47Z</time></trkpt><trkpt lat="43.33396403210313" lon="11.111800713376935"><ele>214.0</ele><time>2026-04-11T07:04:50Z</time></trkpt><trkpt lat="43.333914704080335" lon="11.111689193956321"><ele>214.0</ele><time>2026-04-11T07:04:51Z</time></trkpt><trkpt lat="43.33386970109718" lon="11.111547196047006"><ele>213.99999999999997</ele><time>2026-04-11T07:04:52Z</time></trkpt><trkpt lat="43.333825944671005" lon="11.111437205835287"><ele>214.0</ele><time>2026-04-11T07:04:53Z</time></trkpt><trkpt lat="43.33376300896219" lon="11.111385720959577"><ele>215.14285714285717</ele><time>2026-04-11T07:04:54Z</time></trkpt><trkpt lat="43.33368499619834" lon="11.11134399499676"><ele>216.28571428571428</ele><time>2026-04-11T07:04:55Z</time></trkpt><trkpt lat="43.33362270470398" lon="11.111281596004192"><ele>217.42857142857144</ele><time>2026-04-11T07:04:56Z</time></trkpt><trkpt lat="43.3335777822499" lon="11.111194623854475"><ele>218.57142857142858</ele><time>2026-04-11T07:04:57Z</time></trkpt><trkpt lat="43.333554184933156" lon="11.111100502692175"><ele>219.71428571428572</ele><time>2026-04-11T07:04:58Z</time></trkpt><trkpt lat="43.333520846009606" lon="11.111020771176527"><ele>220.85714285714286</ele><time>2026-04-11T07:04:59Z</time></trkpt><trkpt lat="43.33352508238436" lon="11.110927850286727"><ele>222.0</ele><time>2026-04-11T07:05:01Z</time></trkpt><trkpt lat="43.333583979639364" lon="11.11086124156351"><ele>222.0</ele><time>2026-04-11T07:05:03Z</time></trkpt><trkpt lat="43.333664365867556" lon="11.110759917610887"><ele>222.0</ele><time>2026-04-11T07:05:07Z</time></trkpt><trkpt lat="43.33374899305416" lon="11.110726245902143"><ele>222.0</ele><time>2026-04-11T07:05:09Z</time></trkpt><trkpt lat="43.333715497100755" lon="11.110644335986462"><ele>222.0</ele><time>2026-04-11T07:05:11Z</time></trkpt><trkpt lat="43.33366382513389" lon="11.11054522379686"><ele>222.0</ele><time>2026-04-11T07:05:13Z</time></trkpt><trkpt lat="43.333696452516335" lon="11.110438482112844"><ele>222.0</ele><time>2026-04-11T07:05:14Z</time></trkpt><trkpt lat="43.3337604410206" lon="11.11028490804691"><ele>222.0</ele><time>2026-04-11T07:05:14.999Z</time></trkpt><trkpt lat="43.33383417201902" lon="11.11010900943067"><ele>222.0</ele><time>2026-04-11T07:05:15.999Z</time></trkpt><trkpt lat="43.33389362486558" lon="11.109945795414538"><ele>222.0</ele><time>2026-04-11T07:05:16.999Z</time></trkpt><trkpt lat="43.33395378536468" lon="11.109801573994968"><ele>222.0</ele><time>2026-04-11T07:05:17.999Z</time></trkpt><trkpt lat="43.334011677398564" lon="11.10967149622218"><ele>220.2</ele><time>2026-04-11T07:05:18.999Z</time></trkpt><trkpt lat="43.33406912338432" lon="11.10954933628653"><ele>218.39999999999998</ele><time>2026-04-11T07:05:19.999Z</time></trkpt><trkpt lat="43.33413515060164" lon="11.109466638737798"><ele>216.60000000000002</ele><time>2026-04-11T07:05:20.999Z</time></trkpt><trkpt lat="43.334216500408324" lon="11.109421100105703"><ele>214.8</ele><time>2026-04-11T07:05:21.999Z</time></trkpt><trkpt lat="43.334303835222386" lon="11.109407035645896"><ele>213.0</ele><time>2026-04-11T07:05:22.999Z</time></trkpt><trkpt lat="43.334410083848205" lon="11.109427741235848"><ele>213.0</ele><time>2026-04-11T07:05:23.999Z</time></trkpt><trkpt lat="43.3345342213481" lon="11.109476821649848"><ele>213.0</ele><time>2026-04-11T07:05:24.999Z</time></trkpt><trkpt lat="43.33467765559225" lon="11.109532726871716"><ele>213.0</ele><time>2026-04-11T07:05:25.999Z</time></trkpt><trkpt lat="43.33480252477132" lon="11.10957944899236"><ele>213.0</ele><time>2026-04-11T07:05:26.999Z</time></trkpt><trkpt lat="43.33489992311678" lon="11.109617995789925"><ele>212.2</ele><time>2026-04-11T07:05:27.999Z</time></trkpt><trkpt lat="43.33500043320299" lon="11.109643799036224"><ele>211.4</ele><time>2026-04-11T07:05:29.999Z</time></trkpt><trkpt lat="43.335063702189096" lon="11.109541425956353"><ele>210.6</ele><time>2026-04-11T07:05:31.999Z</time></trkpt><trkpt lat="43.33499887807394" lon="11.10941942142439"><ele>209.79999999999998</ele><time>2026-04-11T07:05:33.999Z</time></trkpt><trkpt lat="43.33492904004757" lon="11.109397296574606"><ele>209.0</ele><time>2026-04-11T07:05:34.999Z</time></trkpt><trkpt lat="43.33483702781377" lon="11.109377052339564"><ele>209.0</ele><time>2026-04-11T07:05:35.999Z</time></trkpt><trkpt lat="43.33473131172672" lon="11.10934658776723"><ele>209.0</ele><time>2026-04-11T07:05:36.999Z</time></trkpt><trkpt lat="43.33466278566792" lon="11.109292322296909"><ele>209.0</ele><time>2026-04-11T07:05:37.999Z</time></trkpt><trkpt lat="43.33460067214851" lon="11.109203466392977"><ele>209.0</ele><time>2026-04-11T07:05:38.999Z</time></trkpt><trkpt lat="43.33454845015752" lon="11.109095386047342"><ele>209.0</ele><time>2026-04-11T07:05:39.999Z</time></trkpt><trkpt lat="43.334513088739534" lon="11.108988762034224"><ele>209.00000000000003</ele><time>2026-04-11T07:05:40.999Z</time></trkpt><trkpt lat="43.33448181866904" lon="11.108890577553286"><ele>209.0</ele><time>2026-04-11T07:05:41.999Z</time></trkpt><trkpt lat="43.33447257725991" lon="11.108800583813391"><ele>209.0</ele><time>2026-04-11T07:05:42.999Z</time></trkpt><trkpt lat="43.33449621508529" lon="11.108709765770598"><ele>209.0</ele><time>2026-04-11T07:05:43.999Z</time></trkpt><trkpt lat="43.33455963429145" lon="11.10864245292176"><ele>209.00000000000003</ele><time>2026-04-11T07:05:44.999Z</time></trkpt><trkpt lat="43.33466916833006" lon="11.108586825337683"><ele>209.0</ele><time>2026-04-11T07:05:45.999Z</time></trkpt><trkpt lat="43.33480533957306" lon="11.108544834708507"><ele>209.0</ele><time>2026-04-11T07:05:46.999Z</time></trkpt><trkpt lat="43.33489781429499" lon="11.108519893001503"><ele>209.0</ele><time>2026-04-11T07:05:47.999Z</time></trkpt><trkpt lat="43.33495965347332" lon="11.108449891148751"><ele>209.0</ele><time>2026-04-11T07:05:49.999Z</time></trkpt><trkpt lat="43.33487973635803" lon="11.10834359624942"><ele>209.0</ele><time>2026-04-11T07:05:51.999Z</time></trkpt><trkpt lat="43.334884479365044" lon="11.108218303348629"><ele>209.0</ele><time>2026-04-11T07:05:54Z</time></trkpt><trkpt lat="43.33498540787579" lon="11.108163938607133"><ele>209.0</ele><time>2026-04-11T07:05:55Z</time></trkpt><trkpt lat="43.335120587123015" lon="11.10812262951504"><ele>209.0</ele><time>2026-04-11T07:05:56Z</time></trkpt><trkpt lat="43.33523817668088" lon="11.10808146070065"><ele>209.0</ele><time>2026-04-11T07:05:57Z</time></trkpt><trkpt lat="43.335318160415135" lon="11.108040426967305"><ele>209.0</ele><time>2026-04-11T07:05:58Z</time></trkpt><trkpt lat="43.335405158357446" lon="11.107934674180836"><ele>209.0</ele><time>2026-04-11T07:06:00Z</time></trkpt><trkpt lat="43.33542077010631" lon="11.107803674550516"><ele>209.0</ele><time>2026-04-11T07:06:02Z</time></trkpt><trkpt lat="43.33533079810064" lon="11.10781410494532"><ele>209.0</ele><time>2026-04-11T07:06:04Z</time></trkpt><trkpt lat="43.335285677766265" lon="11.107894295641042"><ele>209.0</ele><time>2026-04-11T07:06:05Z</time></trkpt><trkpt lat="43.33522550928746" lon="11.107928376882889"><ele>209.0</ele><time>2026-04-11T07:06:06Z</time></trkpt><trkpt lat="43.335150295779805" lon="11.107786605296257"><ele>209.0</ele><time>2026-04-11T07:06:08Z</time></trkpt><trkpt lat="43.33506484823392" lon="11.107747445332297"><ele>209.0</ele><time>2026-04-11T07:06:09Z</time></trkpt><trkpt lat="43.33494823582041" lon="11.107726487116262"><ele>209.0</ele><time>2026-04-11T07:06:10Z</time></trkpt><trkpt lat="43.334872101094966" lon="11.107679331140293"><ele>209.0</ele><time>2026-04-11T07:06:11Z</time></trkpt><trkpt lat="43.33480491681994" lon="11.107550103073041"><ele>209.0</ele><time>2026-04-11T07:06:13Z</time></trkpt><trkpt lat="43.33476369120663" lon="11.10735630503301"><ele>209.2</ele><time>2026-04-11T07:06:15Z</time></trkpt><trkpt lat="43.334734990525746" lon="11.107244781840958"><ele>209.39999999999998</ele><time>2026-04-11T07:06:16Z</time></trkpt><trkpt lat="43.334695497460864" lon="11.107137263221713"><ele>209.6</ele><time>2026-04-11T07:06:17Z</time></trkpt><trkpt lat="43.33464071808662" lon="11.107053354369338"><ele>209.8</ele><time>2026-04-11T07:06:18Z</time></trkpt><trkpt lat="43.33456534655621" lon="11.106976788887769"><ele>210.0</ele><time>2026-04-11T07:06:19Z</time></trkpt><trkpt lat="43.334493707599016" lon="11.106877435078674"><ele>210.33333333333334</ele><time>2026-04-11T07:06:20Z</time></trkpt><trkpt lat="43.334444961436596" lon="11.106769277319572"><ele>210.66666666666669</ele><time>2026-04-11T07:06:21Z</time></trkpt><trkpt lat="43.334398503388215" lon="11.106678756855965"><ele>211.0</ele><time>2026-04-11T07:06:22Z</time></trkpt><trkpt lat="43.33433873975594" lon="11.106613226018935"><ele>211.33333333333334</ele><time>2026-04-11T07:06:23Z</time></trkpt><trkpt lat="43.334278153446576" lon="11.10657153578737"><ele>211.66666666666669</ele><time>2026-04-11T07:06:24Z</time></trkpt><trkpt lat="43.33421622989933" lon="11.106548928417372"><ele>212.0</ele><time>2026-04-11T07:06:25Z</time></trkpt><trkpt lat="43.33413308584778" lon="11.106505869955265"><ele>212.00000000000003</ele><time>2026-04-11T07:06:27Z</time></trkpt><trkpt lat="43.33414000214718" lon="11.10640951816299"><ele>212.0</ele><time>2026-04-11T07:06:30Z</time></trkpt><trkpt lat="43.334061876199286" lon="11.10641682988599"><ele>212.0</ele><time>2026-04-11T07:06:32Z</time></trkpt><trkpt lat="43.334016623645866" lon="11.10632663985077"><ele>212.0</ele><time>2026-04-11T07:06:35Z</time></trkpt><trkpt lat="43.3339299850949" lon="11.106257041025069"><ele>212.00000000000003</ele><time>2026-04-11T07:06:38Z</time></trkpt><trkpt lat="43.333911521713155" lon="11.106102516885086"><ele>212.0</ele><time>2026-04-11T07:06:41Z</time></trkpt><trkpt lat="43.333862512947185" lon="11.105946359483518"><ele>212.66666666666669</ele><time>2026-04-11T07:06:42Z</time></trkpt><trkpt lat="43.333807795183915" lon="11.105842112842723"><ele>213.33333333333334</ele><time>2026-04-11T07:06:43Z</time></trkpt><trkpt lat="43.33375428758716" lon="11.105749890888578"><ele>214.0</ele><time>2026-04-11T07:06:44Z</time></trkpt><trkpt lat="43.333705151593286" lon="11.105669853629859"><ele>214.66666666666669</ele><time>2026-04-11T07:06:45Z</time></trkpt><trkpt lat="43.33366642928457" lon="11.10560118755605"><ele>215.33333333333334</ele><time>2026-04-11T07:06:46Z</time></trkpt><trkpt lat="43.333626504763224" lon="11.105532541514805"><ele>216.0</ele><time>2026-04-11T07:06:47Z</time></trkpt><trkpt lat="43.333572564617626" lon="11.105428741797095"><ele>216.0</ele><time>2026-04-11T07:06:49Z</time></trkpt><trkpt lat="43.33350789047235" lon="11.105324835492096"><ele>216.0</ele><time>2026-04-11T07:06:51Z</time></trkpt><trkpt lat="43.333519321770005" lon="11.10523443136434"><ele>216.0</ele><time>2026-04-11T07:06:53Z</time></trkpt><trkpt lat="43.33343145587305" lon="11.105225635567018"><ele>216.0</ele><time>2026-04-11T07:06:56Z</time></trkpt><trkpt lat="43.33336964483572" lon="11.105181767333905"><ele>216.0</ele><time>2026-04-11T07:06:57Z</time></trkpt><trkpt lat="43.33331278865299" lon="11.105097379794543"><ele>216.0</ele><time>2026-04-11T07:06:58Z</time></trkpt><trkpt lat="43.33324068125202" lon="11.10501515600352"><ele>216.0</ele><time>2026-04-11T07:06:59Z</time></trkpt><trkpt lat="43.3331887163874" lon="11.104952712430828"><ele>216.0</ele><time>2026-04-11T07:07:00Z</time></trkpt><trkpt lat="43.333168950313826" lon="11.104837518968642"><ele>216.0</ele><time>2026-04-11T07:07:02Z</time></trkpt><trkpt lat="43.333172875290984" lon="11.104729194623877"><ele>216.0</ele><time>2026-04-11T07:07:03Z</time></trkpt><trkpt lat="43.33316093434466" lon="11.104592483500795"><ele>216.0</ele><time>2026-04-11T07:07:04Z</time></trkpt><trkpt lat="43.333137502914084" lon="11.104499428579983"><ele>216.0</ele><time>2026-04-11T07:07:05Z</time></trkpt><trkpt lat="43.33308512355733" lon="11.104410430948755"><ele>215.83333333333334</ele><time>2026-04-11T07:07:07Z</time></trkpt><trkpt lat="43.33304613445135" lon="11.104311591384272"><ele>215.66666666666669</ele><time>2026-04-11T07:07:09Z</time></trkpt><trkpt lat="43.33311352274619" lon="11.104246852067497"><ele>215.5</ele><time>2026-04-11T07:07:10.999Z</time></trkpt><trkpt lat="43.33317452405061" lon="11.104197621776432"><ele>215.33333333333334</ele><time>2026-04-11T07:07:11.999Z</time></trkpt><trkpt lat="43.33323381344663" lon="11.10411702817135"><ele>215.16666666666669</ele><time>2026-04-11T07:07:12.999Z</time></trkpt><trkpt lat="43.333281432024776" lon="11.104032954768858"><ele>215.0</ele><time>2026-04-11T07:07:13.999Z</time></trkpt><trkpt lat="43.33331929142275" lon="11.103945905855937"><ele>214.50000000000003</ele><time>2026-04-11T07:07:14.999Z</time></trkpt><trkpt lat="43.3333573996276" lon="11.103856103442824"><ele>214.0</ele><time>2026-04-11T07:07:15.999Z</time></trkpt><trkpt lat="43.33338015116512" lon="11.103768793833176"><ele>213.5</ele><time>2026-04-11T07:07:16.999Z</time></trkpt><trkpt lat="43.33341050524361" lon="11.103681724804499"><ele>213.0</ele><time>2026-04-11T07:07:18.999Z</time></trkpt><trkpt lat="43.333487969413845" lon="11.10371145080329"><ele>212.50000000000003</ele><time>2026-04-11T07:07:20.999Z</time></trkpt><trkpt lat="43.333599372192985" lon="11.103637425313737"><ele>212.0</ele><time>2026-04-11T07:07:22.999Z</time></trkpt><trkpt lat="43.33366975707489" lon="11.10353296197203"><ele>212.00000000000003</ele><time>2026-04-11T07:07:23.999Z</time></trkpt><trkpt lat="43.33372512277177" lon="11.10343899303055"><ele>212.0</ele><time>2026-04-11T07:07:24.999Z</time></trkpt><trkpt lat="43.333754957932015" lon="11.103345894465141"><ele>212.0</ele><time>2026-04-11T07:07:25.999Z</time></trkpt><trkpt lat="43.333773365069845" lon="11.103242634972094"><ele>212.0</ele><time>2026-04-11T07:07:26.999Z</time></trkpt><trkpt lat="43.333812568652235" lon="11.103129674634706"><ele>212.00000000000003</ele><time>2026-04-11T07:07:28.999Z</time></trkpt><trkpt lat="43.333887662147056" lon="11.103062596980436"><ele>212.0</ele><time>2026-04-11T07:07:32.999Z</time></trkpt><trkpt lat="43.33394964196602" lon="11.10308980930061"><ele>211.39999999999998</ele><time>2026-04-11T07:07:33.999Z</time></trkpt><trkpt lat="43.334043139272545" lon="11.10304799101917"><ele>210.79999999999998</ele><time>2026-04-11T07:07:34.999Z</time></trkpt><trkpt lat="43.33409612232399" lon="11.103148206963418"><ele>210.2</ele><time>2026-04-11T07:07:35.999Z</time></trkpt><trkpt lat="43.334162028512495" lon="11.103274743282416"><ele>209.6</ele><time>2026-04-11T07:07:36.999Z</time></trkpt><trkpt lat="43.33420264433441" lon="11.103384640414653"><ele>209.0</ele><time>2026-04-11T07:07:37.999Z</time></trkpt><trkpt lat="43.334232719166785" lon="11.103487832300472"><ele>209.00000000000003</ele><time>2026-04-11T07:07:38.999Z</time></trkpt><trkpt lat="43.33427491022201" lon="11.103586822895474"><ele>209.0</ele><time>2026-04-11T07:07:39.999Z</time></trkpt><trkpt lat="43.334336437149965" lon="11.10368599481214"><ele>209.0</ele><time>2026-04-11T07:07:40.999Z</time></trkpt><trkpt lat="43.33442444738343" lon="11.103699763203215"><ele>209.0</ele><time>2026-04-11T07:07:42.999Z</time></trkpt><trkpt lat="43.33449974517913" lon="11.103682519258552"><ele>209.00000000000003</ele><time>2026-04-11T07:07:43.999Z</time></trkpt><trkpt lat="43.334572552234164" lon="11.103650134625534"><ele>209.0</ele><time>2026-04-11T07:07:44.999Z</time></trkpt><trkpt lat="43.33463391519854" lon="11.103617386443215"><ele>209.0</ele><time>2026-04-11T07:07:45.999Z</time></trkpt><trkpt lat="43.33470668521839" lon="11.103634820427423"><ele>209.0</ele><time>2026-04-11T07:07:47.999Z</time></trkpt><trkpt lat="43.33482034783909" lon="11.103614422615172"><ele>209.0</ele><time>2026-04-11T07:07:49.999Z</time></trkpt><trkpt lat="43.33490775625704" lon="11.10344005360951"><ele>209.0</ele><time>2026-04-11T07:07:51.999Z</time></trkpt><trkpt lat="43.33503330302231" lon="11.103402357264304"><ele>208.66666666666669</ele><time>2026-04-11T07:07:52.999Z</time></trkpt><trkpt lat="43.33514540639959" lon="11.103326337675343"><ele>208.33333333333334</ele><time>2026-04-11T07:07:54.999Z</time></trkpt><trkpt lat="43.335220155446386" lon="11.103319027953786"><ele>208.0</ele><time>2026-04-11T07:07:56.999Z</time></trkpt><trkpt lat="43.33527052586586" lon="11.10326153696224"><ele>207.66666666666669</ele><time>2026-04-11T07:08:01Z</time></trkpt><trkpt lat="43.33531340296699" lon="11.103190622138822"><ele>207.33333333333334</ele><time>2026-04-11T07:08:03Z</time></trkpt><trkpt lat="43.33539363883572" lon="11.103173103955442"><ele>207.0</ele><time>2026-04-11T07:08:04Z</time></trkpt><trkpt lat="43.335500262793374" lon="11.103142491398767"><ele>206.39999999999998</ele><time>2026-04-11T07:08:05Z</time></trkpt><trkpt lat="43.33561135098023" lon="11.103099051616411"><ele>205.79999999999998</ele><time>2026-04-11T07:08:06Z</time></trkpt><trkpt lat="43.33569121534006" lon="11.103056147860217"><ele>205.2</ele><time>2026-04-11T07:08:07Z</time></trkpt><trkpt lat="43.335793049499344" lon="11.103056467466265"><ele>204.6</ele><time>2026-04-11T07:08:09Z</time></trkpt><trkpt lat="43.3358963810659" lon="11.1030668197995"><ele>204.0</ele><time>2026-04-11T07:08:11Z</time></trkpt><trkpt lat="43.335932925290734" lon="11.102988389395883"><ele>204.0</ele><time>2026-04-11T07:08:14Z</time></trkpt><trkpt lat="43.33616764381059" lon="11.102835826153566"><ele>204.0</ele><time>2026-04-11T07:08:17Z</time></trkpt><trkpt lat="43.3362552298701" lon="11.102816933137929"><ele>204.0</ele><time>2026-04-11T07:08:18Z</time></trkpt><trkpt lat="43.33633208083799" lon="11.10279251573287"><ele>204.0</ele><time>2026-04-11T07:08:19Z</time></trkpt><trkpt lat="43.33639898601023" lon="11.102761740979497"><ele>204.2</ele><time>2026-04-11T07:08:20Z</time></trkpt><trkpt lat="43.3364602043832" lon="11.102735517742259"><ele>204.39999999999998</ele><time>2026-04-11T07:08:21Z</time></trkpt><trkpt lat="43.33653271402245" lon="11.102731437433503"><ele>204.6</ele><time>2026-04-11T07:08:24Z</time></trkpt><trkpt lat="43.336608782436286" lon="11.102614193290995"><ele>204.8</ele><time>2026-04-11T07:08:26Z</time></trkpt><trkpt lat="43.33667408927173" lon="11.10257489629174"><ele>205.0</ele><time>2026-04-11T07:08:27Z</time></trkpt><trkpt lat="43.336820482317734" lon="11.102578645150217"><ele>204.99999999999997</ele><time>2026-04-11T07:08:28Z</time></trkpt><trkpt lat="43.336917546338896" lon="11.102574108963008"><ele>205.0</ele><time>2026-04-11T07:08:29Z</time></trkpt><trkpt lat="43.336993716328706" lon="11.102588770725427"><ele>205.0</ele><time>2026-04-11T07:08:30Z</time></trkpt><trkpt lat="43.337067645450034" lon="11.102596448539186"><ele>205.0</ele><time>2026-04-11T07:08:31Z</time></trkpt><trkpt lat="43.33712104660958" lon="11.102657327621873"><ele>204.99999999999997</ele><time>2026-04-11T07:08:35Z</time></trkpt><trkpt lat="43.33716473445743" lon="11.102734849438542"><ele>205.0</ele><time>2026-04-11T07:08:40Z</time></trkpt><trkpt lat="43.33723934251205" lon="11.102845390813295"><ele>204.49999999999997</ele><time>2026-04-11T07:08:42Z</time></trkpt><trkpt lat="43.33724893672361" lon="11.102976063865999"><ele>204.0</ele><time>2026-04-11T07:08:44Z</time></trkpt><trkpt lat="43.337314039855684" lon="11.10304116332997"><ele>203.5</ele><time>2026-04-11T07:08:46Z</time></trkpt><trkpt lat="43.33735311529198" lon="11.102949868676284"><ele>203.0</ele><time>2026-04-11T07:08:48Z</time></trkpt><trkpt lat="43.3373369251531" lon="11.102849328107744"><ele>202.49999999999997</ele><time>2026-04-11T07:08:49Z</time></trkpt><trkpt lat="43.33730571514018" lon="11.10275271669172"><ele>202.0</ele><time>2026-04-11T07:08:50Z</time></trkpt><trkpt lat="43.337275617750024" lon="11.102644801475225"><ele>201.99999999999997</ele><time>2026-04-11T07:08:51Z</time></trkpt><trkpt lat="43.33724447247724" lon="11.102563955908298"><ele>202.0</ele><time>2026-04-11T07:08:52Z</time></trkpt><trkpt lat="43.33720620071465" lon="11.10249258603065"><ele>202.0</ele><time>2026-04-11T07:08:53Z</time></trkpt><trkpt lat="43.337144642851456" lon="11.1024500871752"><ele>202.0</ele><time>2026-04-11T07:08:54Z</time></trkpt><trkpt lat="43.33707654933185" lon="11.102410191571673"><ele>201.99999999999997</ele><time>2026-04-11T07:08:55Z</time></trkpt><trkpt lat="43.336955873437724" lon="11.102372743456659"><ele>202.0</ele><time>2026-04-11T07:08:57Z</time></trkpt><trkpt lat="43.336889221428756" lon="11.102385579321547"><ele>202.49999999999997</ele><time>2026-04-11T07:08:58Z</time></trkpt><trkpt lat="43.336826378217694" lon="11.10241952656749"><ele>203.0</ele><time>2026-04-11T07:08:59Z</time></trkpt><trkpt lat="43.336710712099794" lon="11.10245073976103"><ele>203.5</ele><time>2026-04-11T07:09:01Z</time></trkpt><trkpt lat="43.33664056654236" lon="11.102465043240949"><ele>204.0</ele><time>2026-04-11T07:09:02Z</time></trkpt><trkpt lat="43.33656746282582" lon="11.102483567951731"><ele>204.49999999999997</ele><time>2026-04-11T07:09:03Z</time></trkpt><trkpt lat="43.336479569918204" lon="11.10248792389626"><ele>205.0</ele><time>2026-04-11T07:09:04Z</time></trkpt><trkpt lat="43.336394223758035" lon="11.102480537944716"><ele>204.8</ele><time>2026-04-11T07:09:05Z</time></trkpt><trkpt lat="43.33630892248731" lon="11.102485045719916"><ele>204.6</ele><time>2026-04-11T07:09:06Z</time></trkpt><trkpt lat="43.33623259553406" lon="11.102520249252724"><ele>204.39999999999998</ele><time>2026-04-11T07:09:07Z</time></trkpt><trkpt lat="43.33615499898074" lon="11.102578619924381"><ele>204.2</ele><time>2026-04-11T07:09:08Z</time></trkpt><trkpt lat="43.33606609943048" lon="11.10263366539109"><ele>204.0</ele><time>2026-04-11T07:09:09Z</time></trkpt><trkpt lat="43.335966106716064" lon="11.102665151706706"><ele>204.0</ele><time>2026-04-11T07:09:10Z</time></trkpt><trkpt lat="43.33586175654254" lon="11.102683536354803"><ele>204.0</ele><time>2026-04-11T07:09:11Z</time></trkpt><trkpt lat="43.33576125217258" lon="11.102739518618545"><ele>204.0</ele><time>2026-04-11T07:09:12Z</time></trkpt><trkpt lat="43.33565994560318" lon="11.102812373542449"><ele>204.0</ele><time>2026-04-11T07:09:13Z</time></trkpt><trkpt lat="43.33555718564158" lon="11.102890551830269"><ele>204.0</ele><time>2026-04-11T07:09:14Z</time></trkpt><trkpt lat="43.33545109560793" lon="11.102961429431991"><ele>203.83333333333334</ele><time>2026-04-11T07:09:15Z</time></trkpt><trkpt lat="43.33535342777353" lon="11.103029735126425"><ele>203.66666666666669</ele><time>2026-04-11T07:09:16Z</time></trkpt><trkpt lat="43.33527023110538" lon="11.103096378090234"><ele>203.5</ele><time>2026-04-11T07:09:17Z</time></trkpt><trkpt lat="43.3351933156855" lon="11.103158178320275"><ele>203.33333333333334</ele><time>2026-04-11T07:09:18Z</time></trkpt><trkpt lat="43.33513012696076" lon="11.103209740455819"><ele>203.16666666666669</ele><time>2026-04-11T07:09:19Z</time></trkpt><trkpt lat="43.33506305851805" lon="11.103257205889012"><ele>203.0</ele><time>2026-04-11T07:09:20Z</time></trkpt><trkpt lat="43.33500513032837" lon="11.103296523844525"><ele>203.66666666666669</ele><time>2026-04-11T07:09:21Z</time></trkpt><trkpt lat="43.33492989468343" lon="11.103334198709643"><ele>204.33333333333334</ele><time>2026-04-11T07:09:23Z</time></trkpt><trkpt lat="43.33486831076277" lon="11.103388124979471"><ele>205.0</ele><time>2026-04-11T07:09:34.999Z</time></trkpt><trkpt lat="43.33481013715085" lon="11.103422323980123"><ele>205.66666666666669</ele><time>2026-04-11T07:09:42.999Z</time></trkpt><trkpt lat="43.334746682105" lon="11.103452213304465"><ele>206.33333333333334</ele><time>2026-04-11T07:09:51.999Z</time></trkpt><trkpt lat="43.33467609599312" lon="11.103373360813551"><ele>207.0</ele><time>2026-04-11T07:09:57.999Z</time></trkpt><trkpt lat="43.334609510505665" lon="11.103305311529995"><ele>209.0</ele><time>2026-04-11T07:10:00.999Z</time></trkpt><trkpt lat="43.33454367159154" lon="11.10321905454055"><ele>205.0</ele><time>2026-04-11T07:10:03.999Z</time></trkpt><trkpt lat="43.33449357963527" lon="11.103281624373444"><ele>209.0</ele><time>2026-04-11T07:10:09Z</time></trkpt><trkpt lat="43.334555316253706" lon="11.103344918050773"><ele>209.0</ele><time>2026-04-11T07:10:12Z</time></trkpt></trkseg></trk></gpx>